PWSweather.com
Personal Weather Stations
Station Observations
DL5ARK
SonnebergDE

SonnebergDE

Lat: 50.34904861, Lon: 11.18112087

Elevation: 1214

Station Type: Selfmade

http://www.sumbarg.de

High Low Average
Temperature 59.0°F15.0°C 36.1°F2.3°C 47.0°F8.3°C
Dew Point 47.4°F8.6°C 35.5°F1.9°C 40.8°F4.9°C
Winds 14.1 mph 22.7 kmh Calm Calm 6.0 mph SSE9.7 kmh SSE
Wind Gusts 14.1 mph22.7 kmh -- 6.0 mph9.7 kmh
Humidity 79% 48% 62%
Pressure 30.19 in1022.4 mb 30.01 in1016.3 mb -
Precipitation 0.00 in0.0 mm - -
Hour Temp Dew Point Humidity Winds Wind Gusts Pressure Precip Precip Rate Daily Precip Total
12:00 AM 40.2°F4.6°C 41.2°F5.1°C 77% 1.1 mph ESE1.8 kmh ESE 1.2 mph1.9 kmh 30.20 in1022.7 mb 0.00 in0.0 mm 0.00 in0.0 mm 0.00 in0.0 mm
12:03 AM 40.1°F4.5°C 41.0°F5.0°C 77% 2.8 mph SE4.5 kmh SE 2.9 mph4.7 kmh 30.20 in1022.7 mb 0.00 in0.0 mm 0.00 in0.0 mm 0.00 in0.0 mm
12:06 AM 39.7°F4.3°C 41.0°F5.0°C 77% 2.0 mph NNW3.2 kmh NNW 2.0 mph3.2 kmh 30.20 in1022.7 mb 0.00 in0.0 mm 0.00 in0.0 mm 0.00 in0.0 mm
12:09 AM 40.0°F4.4°C 41.0°F5.0°C 77% Calm Calm -- 30.20 in1022.7 mb 0.00 in0.0 mm 0.00 in0.0 mm 0.00 in0.0 mm
12:12 AM 40.2°F4.6°C 40.7°F4.8°C 77% 5.0 mph SE8.0 kmh SE 5.0 mph8.0 kmh 30.20 in1022.7 mb 0.00 in0.0 mm 0.00 in0.0 mm 0.00 in0.0 mm
12:15 AM 39.8°F4.3°C 41.1°F5.1°C 78% Calm Calm -- 30.20 in1022.7 mb 0.00 in0.0 mm 0.00 in0.0 mm 0.00 in0.0 mm
12:18 AM 40.6°F4.8°C 40.8°F4.9°C 78% 10.1 mph SE16.3 kmh SE 10.2 mph16.4 kmh 30.20 in1022.7 mb 0.00 in0.0 mm 0.00 in0.0 mm 0.00 in0.0 mm
12:21 AM 40.4°F4.7°C 40.8°F4.9°C 78% 4.9 mph E7.9 kmh E 4.9 mph7.9 kmh 30.19 in1022.4 mb 0.00 in0.0 mm 0.00 in0.0 mm 0.00 in0.0 mm
12:24 AM 40.3°F4.6°C 40.9°F4.9°C 78% 3.6 mph ESE5.8 kmh ESE 3.7 mph6.0 kmh 30.19 in1022.4 mb 0.00 in0.0 mm 0.00 in0.0 mm 0.00 in0.0 mm
12:27 AM 40.2°F4.6°C 40.9°F4.9°C 78% 9.9 mph ESE15.9 kmh ESE 10.0 mph16.1 kmh 30.19 in1022.4 mb 0.00 in0.0 mm 0.00 in0.0 mm 0.00 in0.0 mm
12:30 AM 40.2°F4.6°C 40.6°F4.8°C 78% 2.8 mph ENE4.5 kmh ENE 2.8 mph4.5 kmh 30.19 in1022.4 mb 0.00 in0.0 mm 0.00 in0.0 mm 0.00 in0.0 mm
12:33 AM 40.4°F4.7°C 41.0°F5.0°C 78% 10.5 mph SE16.9 kmh SE 10.6 mph17.1 kmh 30.19 in1022.4 mb 0.00 in0.0 mm 0.00 in0.0 mm 0.00 in0.0 mm
12:36 AM 40.6°F4.8°C 40.6°F4.8°C 78% 6.5 mph NNW10.5 kmh NNW 6.5 mph10.5 kmh 30.19 in1022.4 mb 0.00 in0.0 mm 0.00 in0.0 mm 0.00 in0.0 mm
12:39 AM 40.7°F4.8°C 40.6°F4.8°C 78% 5.0 mph NE8.0 kmh NE 5.0 mph8.0 kmh 30.19 in1022.4 mb 0.00 in0.0 mm 0.00 in0.0 mm 0.00 in0.0 mm
12:42 AM 40.2°F4.6°C 40.6°F4.8°C 77% 6.1 mph ESE9.8 kmh ESE 6.1 mph9.8 kmh 30.19 in1022.4 mb 0.00 in0.0 mm 0.00 in0.0 mm 0.00 in0.0 mm
12:45 AM 40.0°F4.4°C 40.5°F4.7°C 77% 9.7 mph ESE15.6 kmh ESE 9.8 mph15.8 kmh 30.19 in1022.4 mb 0.00 in0.0 mm 0.00 in0.0 mm 0.00 in0.0 mm
12:48 AM 40.7°F4.8°C 40.3°F4.6°C 78% 2.8 mph NNW4.5 kmh NNW 2.8 mph4.5 kmh 30.19 in1022.4 mb 0.00 in0.0 mm 0.00 in0.0 mm 0.00 in0.0 mm
12:51 AM 40.0°F4.4°C 40.6°F4.8°C 77% 4.8 mph SE7.7 kmh SE 4.8 mph7.7 kmh 30.19 in1022.4 mb 0.00 in0.0 mm 0.00 in0.0 mm 0.00 in0.0 mm
12:54 AM 40.4°F4.7°C 40.4°F4.7°C 78% 9.6 mph NNW15.4 kmh NNW 9.6 mph15.4 kmh 30.19 in1022.4 mb 0.00 in0.0 mm 0.00 in0.0 mm 0.00 in0.0 mm
12:57 AM 40.3°F4.6°C 40.5°F4.7°C 78% 9.5 mph SE15.3 kmh SE 9.5 mph15.3 kmh 30.19 in1022.4 mb 0.00 in0.0 mm 0.00 in0.0 mm 0.00 in0.0 mm
01:00 AM 39.9°F4.4°C 40.5°F4.7°C 78% 3.8 mph E6.1 kmh E 3.9 mph6.3 kmh 30.19 in1022.4 mb 0.00 in0.0 mm 0.00 in0.0 mm 0.00 in0.0 mm
01:03 AM 39.5°F4.2°C 40.6°F4.8°C 77% Calm Calm -- 30.19 in1022.4 mb 0.00 in0.0 mm 0.00 in0.0 mm 0.00 in0.0 mm
01:06 AM 39.5°F4.2°C 40.5°F4.7°C 78% 8.9 mph SE14.3 kmh SE 8.9 mph14.3 kmh 30.19 in1022.4 mb 0.00 in0.0 mm 0.00 in0.0 mm 0.00 in0.0 mm
01:09 AM 39.7°F4.3°C 40.5°F4.7°C 79% 5.2 mph NNW8.4 kmh NNW 5.2 mph8.4 kmh 30.19 in1022.4 mb 0.00 in0.0 mm 0.00 in0.0 mm 0.00 in0.0 mm
01:12 AM 39.5°F4.2°C 40.7°F4.8°C 79% 4.0 mph ESE6.4 kmh ESE 4.0 mph6.4 kmh 30.19 in1022.4 mb 0.00 in0.0 mm 0.00 in0.0 mm 0.00 in0.0 mm
01:15 AM 39.4°F4.1°C 40.5°F4.7°C 79% 2.8 mph ESE4.5 kmh ESE 2.8 mph4.5 kmh 30.19 in1022.4 mb 0.00 in0.0 mm 0.00 in0.0 mm 0.00 in0.0 mm
01:18 AM 39.7°F4.3°C 40.3°F4.6°C 79% 5.3 mph ESE8.5 kmh ESE 5.3 mph8.5 kmh 30.19 in1022.4 mb 0.00 in0.0 mm 0.00 in0.0 mm 0.00 in0.0 mm
01:21 AM 39.5°F4.2°C 40.2°F4.6°C 79% 11.3 mph SE18.2 kmh SE 11.5 mph18.5 kmh 30.19 in1022.4 mb 0.00 in0.0 mm 0.00 in0.0 mm 0.00 in0.0 mm
01:24 AM 40.2°F4.6°C 39.7°F4.3°C 78% 7.7 mph NNW12.4 kmh NNW 7.7 mph12.4 kmh 30.19 in1022.4 mb 0.00 in0.0 mm 0.00 in0.0 mm 0.00 in0.0 mm
01:27 AM 39.5°F4.2°C 39.9°F4.4°C 77% 2.8 mph E4.5 kmh E 2.8 mph4.5 kmh 30.19 in1022.4 mb 0.00 in0.0 mm 0.00 in0.0 mm 0.00 in0.0 mm
01:30 AM 39.4°F4.1°C 40.0°F4.4°C 77% 4.0 mph ESE6.4 kmh ESE 4.1 mph6.6 kmh 30.19 in1022.4 mb 0.00 in0.0 mm 0.00 in0.0 mm 0.00 in0.0 mm
01:33 AM 39.8°F4.3°C 39.8°F4.3°C 77% 6.5 mph ESE10.5 kmh ESE 6.5 mph10.5 kmh 30.19 in1022.4 mb 0.00 in0.0 mm 0.00 in0.0 mm 0.00 in0.0 mm
01:36 AM 39.3°F4.1°C 40.0°F4.4°C 77% 2.8 mph NE4.5 kmh NE 2.8 mph4.5 kmh 30.19 in1022.4 mb 0.00 in0.0 mm 0.00 in0.0 mm 0.00 in0.0 mm
01:39 AM 39.8°F4.3°C 39.4°F4.1°C 77% 3.2 mph E5.1 kmh E 3.3 mph5.3 kmh 30.19 in1022.4 mb 0.00 in0.0 mm 0.00 in0.0 mm 0.00 in0.0 mm
01:42 AM 40.2°F4.6°C 39.0°F3.9°C 76% 10.5 mph ESE16.9 kmh ESE 10.6 mph17.1 kmh 30.19 in1022.4 mb 0.00 in0.0 mm 0.00 in0.0 mm 0.00 in0.0 mm
01:45 AM 39.9°F4.4°C 38.9°F3.8°C 75% 6.0 mph SE9.7 kmh SE 6.0 mph9.7 kmh 30.19 in1022.4 mb 0.00 in0.0 mm 0.00 in0.0 mm 0.00 in0.0 mm
01:48 AM 39.0°F3.9°C 39.2°F4.0°C 75% 6.4 mph NNW10.3 kmh NNW 6.5 mph10.5 kmh 30.19 in1022.4 mb 0.00 in0.0 mm 0.00 in0.0 mm 0.00 in0.0 mm
01:51 AM 39.1°F3.9°C 38.7°F3.7°C 73% 4.9 mph ESE7.9 kmh ESE 4.9 mph7.9 kmh 30.19 in1022.4 mb 0.00 in0.0 mm 0.00 in0.0 mm 0.00 in0.0 mm
01:54 AM 39.5°F4.2°C 38.5°F3.6°C 73% 6.5 mph SE10.5 kmh SE 6.5 mph10.5 kmh 30.19 in1022.4 mb 0.00 in0.0 mm 0.00 in0.0 mm 0.00 in0.0 mm
01:57 AM 38.9°F3.8°C 38.6°F3.7°C 73% 5.2 mph SSE8.4 kmh SSE 5.2 mph8.4 kmh 30.19 in1022.4 mb 0.00 in0.0 mm 0.00 in0.0 mm 0.00 in0.0 mm
02:00 AM 38.6°F3.7°C 38.5°F3.6°C 73% 3.6 mph ESE5.8 kmh ESE 3.6 mph5.8 kmh 30.19 in1022.4 mb 0.00 in0.0 mm 0.00 in0.0 mm 0.00 in0.0 mm
02:03 AM 39.3°F4.1°C 38.4°F3.6°C 74% 4.4 mph ESE7.1 kmh ESE 4.5 mph7.2 kmh 30.19 in1022.4 mb 0.00 in0.0 mm 0.00 in0.0 mm 0.00 in0.0 mm
02:06 AM 39.1°F3.9°C 38.3°F3.5°C 74% 1.2 mph ESE1.9 kmh ESE 1.2 mph1.9 kmh 30.19 in1022.4 mb 0.00 in0.0 mm 0.00 in0.0 mm 0.00 in0.0 mm
02:09 AM 38.4°F3.6°C 38.4°F3.6°C 73% Calm Calm -- 30.19 in1022.4 mb 0.00 in0.0 mm 0.00 in0.0 mm 0.00 in0.0 mm
02:12 AM 38.2°F3.4°C 38.3°F3.5°C 73% Calm Calm -- 30.19 in1022.4 mb 0.00 in0.0 mm 0.00 in0.0 mm 0.00 in0.0 mm
02:15 AM 38.6°F3.7°C 38.0°F3.3°C 73% 2.4 mph E3.9 kmh E 2.4 mph3.9 kmh 30.19 in1022.4 mb 0.00 in0.0 mm 0.00 in0.0 mm 0.00 in0.0 mm
02:18 AM 38.4°F3.6°C 38.0°F3.3°C 72% 1.2 mph ESE1.9 kmh ESE 1.2 mph1.9 kmh 30.19 in1022.4 mb 0.00 in0.0 mm 0.00 in0.0 mm 0.00 in0.0 mm
02:21 AM 38.6°F3.7°C 38.0°F3.3°C 73% Calm Calm -- 30.19 in1022.4 mb 0.00 in0.0 mm 0.00 in0.0 mm 0.00 in0.0 mm
02:24 AM 38.4°F3.6°C 37.6°F3.1°C 72% 12.1 mph SE19.5 kmh SE 12.2 mph19.6 kmh 30.19 in1022.4 mb 0.00 in0.0 mm 0.00 in0.0 mm 0.00 in0.0 mm
02:27 AM 38.8°F3.8°C 37.1°F2.8°C 71% Calm Calm -- 30.19 in1022.4 mb 0.00 in0.0 mm 0.00 in0.0 mm 0.00 in0.0 mm
02:30 AM 39.4°F4.1°C 36.5°F2.5°C 71% 8.1 mph NNW13.0 kmh NNW 8.1 mph13.0 kmh 30.19 in1022.4 mb 0.00 in0.0 mm 0.00 in0.0 mm 0.00 in0.0 mm
02:33 AM 39.4°F4.1°C 36.1°F2.3°C 70% 7.3 mph SSE11.7 kmh SSE 7.3 mph11.7 kmh 30.18 in1022.0 mb 0.00 in0.0 mm 0.00 in0.0 mm 0.00 in0.0 mm
02:36 AM 39.0°F3.9°C 36.3°F2.4°C 70% 7.6 mph ESE12.2 kmh ESE 7.7 mph12.4 kmh 30.19 in1022.4 mb 0.00 in0.0 mm 0.00 in0.0 mm 0.00 in0.0 mm
02:39 AM 38.8°F3.8°C 36.5°F2.5°C 70% 0.4 mph ENE0.6 kmh ENE 0.4 mph0.6 kmh 30.19 in1022.4 mb 0.00 in0.0 mm 0.00 in0.0 mm 0.00 in0.0 mm
02:42 AM 38.9°F3.8°C 36.4°F2.4°C 69% 10.0 mph NNW16.1 kmh NNW 10.0 mph16.1 kmh 30.19 in1022.4 mb 0.00 in0.0 mm 0.00 in0.0 mm 0.00 in0.0 mm
02:45 AM 38.5°F3.6°C 36.3°F2.4°C 69% 4.6 mph SE7.4 kmh SE 4.6 mph7.4 kmh 30.19 in1022.4 mb 0.00 in0.0 mm 0.00 in0.0 mm 0.00 in0.0 mm
02:48 AM 38.2°F3.4°C 36.6°F2.6°C 70% 3.0 mph SE4.8 kmh SE 3.0 mph4.8 kmh 30.18 in1022.0 mb 0.00 in0.0 mm 0.00 in0.0 mm 0.00 in0.0 mm
02:51 AM 38.8°F3.8°C 36.4°F2.4°C 69% 8.0 mph NNW12.9 kmh NNW 8.0 mph12.9 kmh 30.19 in1022.4 mb 0.00 in0.0 mm 0.00 in0.0 mm 0.00 in0.0 mm
02:54 AM 38.4°F3.6°C 36.3°F2.4°C 69% 6.0 mph E9.7 kmh E 6.0 mph9.7 kmh 30.19 in1022.4 mb 0.00 in0.0 mm 0.00 in0.0 mm 0.00 in0.0 mm
02:57 AM 38.8°F3.8°C 36.2°F2.3°C 69% 2.8 mph NNW4.5 kmh NNW 2.9 mph4.7 kmh 30.19 in1022.4 mb 0.00 in0.0 mm 0.00 in0.0 mm 0.00 in0.0 mm
03:00 AM 38.3°F3.5°C 36.1°F2.3°C 69% 6.9 mph E11.1 kmh E 6.9 mph11.1 kmh 30.18 in1022.0 mb 0.00 in0.0 mm 0.00 in0.0 mm 0.00 in0.0 mm
03:03 AM 38.0°F3.3°C 36.2°F2.3°C 69% 4.9 mph SE7.9 kmh SE 4.9 mph7.9 kmh 30.18 in1022.0 mb 0.00 in0.0 mm 0.00 in0.0 mm 0.00 in0.0 mm
03:06 AM 37.7°F3.2°C 36.3°F2.4°C 69% 2.4 mph E3.9 kmh E 2.4 mph3.9 kmh 30.18 in1022.0 mb 0.00 in0.0 mm 0.00 in0.0 mm 0.00 in0.0 mm
03:09 AM 38.6°F3.7°C 35.9°F2.2°C 69% 13.1 mph SE21.1 kmh SE 13.1 mph21.1 kmh 30.19 in1022.4 mb 0.00 in0.0 mm 0.00 in0.0 mm 0.00 in0.0 mm
03:12 AM 38.2°F3.4°C 36.0°F2.2°C 69% 5.6 mph ESE9.0 kmh ESE 5.7 mph9.2 kmh 30.18 in1022.0 mb 0.00 in0.0 mm 0.00 in0.0 mm 0.00 in0.0 mm
03:15 AM 38.6°F3.7°C 35.7°F2.1°C 68% 6.0 mph NE9.7 kmh NE 6.0 mph9.7 kmh 30.18 in1022.0 mb 0.00 in0.0 mm 0.00 in0.0 mm 0.00 in0.0 mm
03:18 AM 38.3°F3.5°C 36.0°F2.2°C 69% 9.6 mph ESE15.4 kmh ESE 9.8 mph15.8 kmh 30.18 in1022.0 mb 0.00 in0.0 mm 0.00 in0.0 mm 0.00 in0.0 mm
03:21 AM 38.0°F3.3°C 35.9°F2.2°C 69% 10.4 mph ESE16.7 kmh ESE 10.5 mph16.9 kmh 30.18 in1022.0 mb 0.00 in0.0 mm 0.00 in0.0 mm 0.00 in0.0 mm
03:24 AM 38.3°F3.5°C 36.1°F2.3°C 69% 4.2 mph ESE6.8 kmh ESE 4.2 mph6.8 kmh 30.18 in1022.0 mb 0.00 in0.0 mm 0.00 in0.0 mm 0.00 in0.0 mm
03:27 AM 38.3°F3.5°C 35.7°F2.1°C 69% 10.5 mph NNW16.9 kmh NNW 10.6 mph17.1 kmh 30.18 in1022.0 mb 0.00 in0.0 mm 0.00 in0.0 mm 0.00 in0.0 mm
03:30 AM 38.8°F3.8°C 35.6°F2.0°C 69% 4.9 mph ESE7.9 kmh ESE 4.9 mph7.9 kmh 30.18 in1022.0 mb 0.00 in0.0 mm 0.00 in0.0 mm 0.00 in0.0 mm
03:33 AM 38.5°F3.6°C 35.8°F2.1°C 69% 3.2 mph NE5.1 kmh NE 3.2 mph5.1 kmh 30.18 in1022.0 mb 0.00 in0.0 mm 0.00 in0.0 mm 0.00 in0.0 mm
03:36 AM 38.2°F3.4°C 36.0°F2.2°C 70% 4.0 mph NE6.4 kmh NE 4.1 mph6.6 kmh 30.18 in1022.0 mb 0.00 in0.0 mm 0.00 in0.0 mm 0.00 in0.0 mm
03:39 AM 38.1°F3.4°C 36.2°F2.3°C 70% 4.4 mph NE7.1 kmh NE 4.5 mph7.2 kmh 30.18 in1022.0 mb 0.00 in0.0 mm 0.00 in0.0 mm 0.00 in0.0 mm
03:42 AM 37.6°F3.1°C 36.2°F2.3°C 70% 6.5 mph ESE10.5 kmh ESE 6.5 mph10.5 kmh 30.18 in1022.0 mb 0.00 in0.0 mm 0.00 in0.0 mm 0.00 in0.0 mm
03:45 AM 37.7°F3.2°C 35.9°F2.2°C 70% 4.8 mph NE7.7 kmh NE 4.9 mph7.9 kmh 30.18 in1022.0 mb 0.00 in0.0 mm 0.00 in0.0 mm 0.00 in0.0 mm
03:48 AM 38.2°F3.4°C 35.6°F2.0°C 69% 6.5 mph SE10.5 kmh SE 6.5 mph10.5 kmh 30.18 in1022.0 mb 0.00 in0.0 mm 0.00 in0.0 mm 0.00 in0.0 mm
03:51 AM 38.1°F3.4°C 36.0°F2.2°C 70% 4.0 mph ENE6.4 kmh ENE 4.1 mph6.6 kmh 30.18 in1022.0 mb 0.00 in0.0 mm 0.00 in0.0 mm 0.00 in0.0 mm
03:54 AM 38.2°F3.4°C 36.1°F2.3°C 70% 2.0 mph SE3.2 kmh SE 2.0 mph3.2 kmh 30.18 in1022.0 mb 0.00 in0.0 mm 0.00 in0.0 mm 0.00 in0.0 mm
03:57 AM 38.1°F3.4°C 36.0°F2.2°C 70% 2.0 mph SE3.2 kmh SE 2.0 mph3.2 kmh 30.18 in1022.0 mb 0.00 in0.0 mm 0.00 in0.0 mm 0.00 in0.0 mm
04:00 AM 38.1°F3.4°C 35.7°F2.1°C 70% 7.1 mph SE11.4 kmh SE 7.1 mph11.4 kmh 30.18 in1022.0 mb 0.00 in0.0 mm 0.00 in0.0 mm 0.00 in0.0 mm
04:03 AM 37.6°F3.1°C 36.0°F2.2°C 70% 8.1 mph E13.0 kmh E 8.2 mph13.2 kmh 30.18 in1022.0 mb 0.00 in0.0 mm 0.00 in0.0 mm 0.00 in0.0 mm
04:06 AM 37.5°F3.1°C 35.9°F2.2°C 70% 6.9 mph ESE11.1 kmh ESE 6.9 mph11.1 kmh 30.18 in1022.0 mb 0.00 in0.0 mm 0.00 in0.0 mm 0.00 in0.0 mm
04:09 AM 37.5°F3.1°C 35.6°F2.0°C 69% 5.6 mph E9.0 kmh E 5.7 mph9.2 kmh 30.18 in1022.0 mb 0.00 in0.0 mm 0.00 in0.0 mm 0.00 in0.0 mm
04:12 AM 37.7°F3.2°C 36.0°F2.2°C 70% 1.6 mph NNW2.6 kmh NNW 1.6 mph2.6 kmh 30.18 in1022.0 mb 0.00 in0.0 mm 0.00 in0.0 mm 0.00 in0.0 mm
04:15 AM 37.7°F3.2°C 36.0°F2.2°C 71% 9.6 mph E15.4 kmh E 9.6 mph15.4 kmh 30.17 in1021.7 mb 0.00 in0.0 mm 0.00 in0.0 mm 0.00 in0.0 mm
04:18 AM 37.4°F3.0°C 35.9°F2.2°C 71% 2.4 mph NE3.9 kmh NE 2.4 mph3.9 kmh 30.18 in1022.0 mb 0.00 in0.0 mm 0.00 in0.0 mm 0.00 in0.0 mm
04:21 AM 37.0°F2.8°C 36.0°F2.2°C 71% Calm Calm -- 30.17 in1021.7 mb 0.00 in0.0 mm 0.00 in0.0 mm 0.00 in0.0 mm
04:24 AM 37.5°F3.1°C 36.2°F2.3°C 71% 2.4 mph NNW3.9 kmh NNW 2.4 mph3.9 kmh 30.17 in1021.7 mb 0.00 in0.0 mm 0.00 in0.0 mm 0.00 in0.0 mm
04:27 AM 37.3°F2.9°C 35.9°F2.2°C 71% 9.7 mph ESE15.6 kmh ESE 9.8 mph15.8 kmh 30.17 in1021.7 mb 0.00 in0.0 mm 0.00 in0.0 mm 0.00 in0.0 mm
04:30 AM 37.4°F3.0°C 35.8°F2.1°C 71% 5.2 mph NNW8.4 kmh NNW 5.3 mph8.5 kmh 30.17 in1021.7 mb 0.00 in0.0 mm 0.00 in0.0 mm 0.00 in0.0 mm
04:33 AM 36.8°F2.7°C 35.9°F2.2°C 71% 1.6 mph ENE2.6 kmh ENE 1.6 mph2.6 kmh 30.17 in1021.7 mb 0.00 in0.0 mm 0.00 in0.0 mm 0.00 in0.0 mm
04:36 AM 37.1°F2.8°C 36.2°F2.3°C 72% 2.4 mph NNW3.9 kmh NNW 2.4 mph3.9 kmh 30.17 in1021.7 mb 0.00 in0.0 mm 0.00 in0.0 mm 0.00 in0.0 mm
04:39 AM 36.8°F2.7°C 35.9°F2.2°C 72% 5.7 mph SE9.2 kmh SE 5.7 mph9.2 kmh 30.17 in1021.7 mb 0.00 in0.0 mm 0.00 in0.0 mm 0.00 in0.0 mm
04:42 AM 37.1°F2.8°C 35.9°F2.2°C 72% 5.3 mph E8.5 kmh E 5.3 mph8.5 kmh 30.17 in1021.7 mb 0.00 in0.0 mm 0.00 in0.0 mm 0.00 in0.0 mm
04:45 AM 37.4°F3.0°C 36.0°F2.2°C 71% 4.4 mph E7.1 kmh E 4.4 mph7.1 kmh 30.17 in1021.7 mb 0.00 in0.0 mm 0.00 in0.0 mm 0.00 in0.0 mm
04:48 AM 37.3°F2.9°C 35.7°F2.1°C 71% 3.1 mph SE5.0 kmh SE 3.3 mph5.3 kmh 30.17 in1021.7 mb 0.00 in0.0 mm 0.00 in0.0 mm 0.00 in0.0 mm
04:51 AM 36.7°F2.6°C 36.3°F2.4°C 72% 2.3 mph E3.7 kmh E 2.4 mph3.9 kmh 30.17 in1021.7 mb 0.00 in0.0 mm 0.00 in0.0 mm 0.00 in0.0 mm
04:54 AM 36.8°F2.7°C 36.0°F2.2°C 72% 3.5 mph ESE5.6 kmh ESE 3.5 mph5.6 kmh 30.18 in1022.0 mb 0.00 in0.0 mm 0.00 in0.0 mm 0.00 in0.0 mm
04:57 AM 36.8°F2.7°C 35.9°F2.2°C 71% Calm Calm -- 30.17 in1021.7 mb 0.00 in0.0 mm 0.00 in0.0 mm 0.00 in0.0 mm
05:00 AM 36.8°F2.7°C 36.0°F2.2°C 72% Calm Calm -- 30.17 in1021.7 mb 0.00 in0.0 mm 0.00 in0.0 mm 0.00 in0.0 mm
05:03 AM 36.6°F2.6°C 36.0°F2.2°C 72% Calm Calm -- 30.17 in1021.7 mb 0.00 in0.0 mm 0.00 in0.0 mm 0.00 in0.0 mm
05:06 AM 36.8°F2.7°C 35.7°F2.1°C 71% 2.0 mph E3.2 kmh E 2.0 mph3.2 kmh 30.17 in1021.7 mb 0.00 in0.0 mm 0.00 in0.0 mm 0.00 in0.0 mm
05:09 AM 36.6°F2.6°C 36.3°F2.4°C 72% 3.6 mph NNW5.8 kmh NNW 3.7 mph6.0 kmh 30.18 in1022.0 mb 0.00 in0.0 mm 0.00 in0.0 mm 0.00 in0.0 mm
05:12 AM 37.1°F2.8°C 36.0°F2.2°C 72% 5.2 mph SE8.4 kmh SE 5.2 mph8.4 kmh 30.17 in1021.7 mb 0.00 in0.0 mm 0.00 in0.0 mm 0.00 in0.0 mm
05:15 AM 36.6°F2.6°C 35.9°F2.2°C 72% 1.6 mph NNW2.6 kmh NNW 1.6 mph2.6 kmh 30.17 in1021.7 mb 0.00 in0.0 mm 0.00 in0.0 mm 0.00 in0.0 mm
05:18 AM 36.6°F2.6°C 36.2°F2.3°C 73% 1.6 mph ESE2.6 kmh ESE 1.6 mph2.6 kmh 30.17 in1021.7 mb 0.00 in0.0 mm 0.00 in0.0 mm 0.00 in0.0 mm
05:21 AM 36.6°F2.6°C 36.2°F2.3°C 73% 5.7 mph ESE9.2 kmh ESE 5.7 mph9.2 kmh 30.17 in1021.7 mb 0.00 in0.0 mm 0.00 in0.0 mm 0.00 in0.0 mm
05:24 AM 36.8°F2.7°C 36.3°F2.4°C 73% 1.6 mph ESE2.6 kmh ESE 1.6 mph2.6 kmh 30.17 in1021.7 mb 0.00 in0.0 mm 0.00 in0.0 mm 0.00 in0.0 mm
05:27 AM 37.4°F3.0°C 35.8°F2.1°C 73% 12.0 mph ESE19.3 kmh ESE 12.1 mph19.5 kmh 30.18 in1022.0 mb 0.00 in0.0 mm 0.00 in0.0 mm 0.00 in0.0 mm
05:30 AM 36.6°F2.6°C 36.4°F2.4°C 74% 1.6 mph ENE2.6 kmh ENE 1.6 mph2.6 kmh 30.17 in1021.7 mb 0.00 in0.0 mm 0.00 in0.0 mm 0.00 in0.0 mm
05:33 AM 36.4°F2.4°C 36.3°F2.4°C 73% 1.2 mph E1.9 kmh E 1.2 mph1.9 kmh 30.17 in1021.7 mb 0.00 in0.0 mm 0.00 in0.0 mm 0.00 in0.0 mm
05:36 AM 36.1°F2.3°C 36.2°F2.3°C 73% Calm Calm -- 30.17 in1021.7 mb 0.00 in0.0 mm 0.00 in0.0 mm 0.00 in0.0 mm
05:39 AM 36.3°F2.4°C 36.1°F2.3°C 74% 2.8 mph ESE4.5 kmh ESE 2.9 mph4.7 kmh 30.17 in1021.7 mb 0.00 in0.0 mm 0.00 in0.0 mm 0.00 in0.0 mm
05:42 AM 36.5°F2.5°C 36.5°F2.5°C 74% 3.2 mph NE5.1 kmh NE 3.3 mph5.3 kmh 30.17 in1021.7 mb 0.00 in0.0 mm 0.00 in0.0 mm 0.00 in0.0 mm
05:45 AM 36.3°F2.4°C 36.3°F2.4°C 74% Calm Calm -- 30.17 in1021.7 mb 0.00 in0.0 mm 0.00 in0.0 mm 0.00 in0.0 mm
05:48 AM 36.4°F2.4°C 36.0°F2.2°C 74% 6.6 mph ESE10.6 kmh ESE 6.6 mph10.6 kmh 30.17 in1021.7 mb 0.00 in0.0 mm 0.00 in0.0 mm 0.00 in0.0 mm
05:51 AM 36.5°F2.5°C 36.2°F2.3°C 75% 1.9 mph ESE3.1 kmh ESE 1.9 mph3.1 kmh 30.17 in1021.7 mb 0.00 in0.0 mm 0.00 in0.0 mm 0.00 in0.0 mm
05:54 AM 36.6°F2.6°C 36.1°F2.3°C 74% Calm Calm -- 30.17 in1021.7 mb 0.00 in0.0 mm 0.00 in0.0 mm 0.00 in0.0 mm
05:57 AM 37.0°F2.8°C 36.0°F2.2°C 75% 3.6 mph NE5.8 kmh NE 3.6 mph5.8 kmh 30.17 in1021.7 mb 0.00 in0.0 mm 0.00 in0.0 mm 0.00 in0.0 mm
06:00 AM 36.5°F2.5°C 36.2°F2.3°C 75% 5.6 mph E9.0 kmh E 5.7 mph9.2 kmh 30.17 in1021.7 mb 0.00 in0.0 mm 0.00 in0.0 mm 0.00 in0.0 mm
06:03 AM 36.8°F2.7°C 36.5°F2.5°C 75% Calm Calm -- 30.17 in1021.7 mb 0.00 in0.0 mm 0.00 in0.0 mm 0.00 in0.0 mm
06:06 AM 36.5°F2.5°C 36.4°F2.4°C 75% 5.2 mph ESE8.4 kmh ESE 5.2 mph8.4 kmh 30.17 in1021.7 mb 0.00 in0.0 mm 0.00 in0.0 mm 0.00 in0.0 mm
06:09 AM 36.6°F2.6°C 36.2°F2.3°C 75% 0.4 mph SE0.6 kmh SE 0.4 mph0.6 kmh 30.17 in1021.7 mb 0.00 in0.0 mm 0.00 in0.0 mm 0.00 in0.0 mm
06:12 AM 36.7°F2.6°C 36.4°F2.4°C 75% 4.0 mph ESE6.4 kmh ESE 4.1 mph6.6 kmh 30.18 in1022.0 mb 0.00 in0.0 mm 0.00 in0.0 mm 0.00 in0.0 mm
06:15 AM 36.8°F2.7°C 36.2°F2.3°C 75% 5.3 mph NNW8.5 kmh NNW 5.3 mph8.5 kmh 30.18 in1022.0 mb 0.00 in0.0 mm 0.00 in0.0 mm 0.00 in0.0 mm
06:18 AM 36.5°F2.5°C 36.6°F2.6°C 75% 0.4 mph NE0.6 kmh NE 0.4 mph0.6 kmh 30.18 in1022.0 mb 0.00 in0.0 mm 0.00 in0.0 mm 0.00 in0.0 mm
06:21 AM 36.8°F2.7°C 36.9°F2.7°C 75% Calm Calm -- 30.18 in1022.0 mb 0.00 in0.0 mm 0.00 in0.0 mm 0.00 in0.0 mm
06:24 AM 37.1°F2.8°C 36.9°F2.7°C 75% 3.4 mph ESE5.5 kmh ESE 3.4 mph5.5 kmh 30.18 in1022.0 mb 0.00 in0.0 mm 0.00 in0.0 mm 0.00 in0.0 mm
06:27 AM 37.0°F2.8°C 37.2°F2.9°C 74% Calm Calm -- 30.18 in1022.0 mb 0.00 in0.0 mm 0.00 in0.0 mm 0.00 in0.0 mm
06:30 AM 37.6°F3.1°C 36.7°F2.6°C 73% 7.1 mph ESE11.4 kmh ESE 7.2 mph11.6 kmh 30.18 in1022.0 mb 0.00 in0.0 mm 0.00 in0.0 mm 0.00 in0.0 mm
06:33 AM 37.5°F3.1°C 37.1°F2.8°C 73% Calm Calm -- 30.18 in1022.0 mb 0.00 in0.0 mm 0.00 in0.0 mm 0.00 in0.0 mm
06:36 AM 37.6°F3.1°C 37.4°F3.0°C 73% 0.8 mph E1.3 kmh E 0.8 mph1.3 kmh 30.18 in1022.0 mb 0.00 in0.0 mm 0.00 in0.0 mm 0.00 in0.0 mm
06:39 AM 38.0°F3.3°C 37.4°F3.0°C 72% 1.2 mph E1.9 kmh E 1.2 mph1.9 kmh 30.18 in1022.0 mb 0.00 in0.0 mm 0.00 in0.0 mm 0.00 in0.0 mm
06:42 AM 38.2°F3.4°C 37.8°F3.2°C 72% Calm Calm -- 30.18 in1022.0 mb 0.00 in0.0 mm 0.00 in0.0 mm 0.00 in0.0 mm
06:45 AM 38.3°F3.5°C 37.9°F3.3°C 72% Calm Calm -- 30.18 in1022.0 mb 0.00 in0.0 mm 0.00 in0.0 mm 0.00 in0.0 mm
06:48 AM 38.6°F3.7°C 37.9°F3.3°C 72% 3.1 mph NNW5.0 kmh NNW 3.1 mph5.0 kmh 30.18 in1022.0 mb 0.00 in0.0 mm 0.00 in0.0 mm 0.00 in0.0 mm
06:51 AM 39.0°F3.9°C 37.9°F3.3°C 71% 3.8 mph E6.1 kmh E 3.8 mph6.1 kmh 30.18 in1022.0 mb 0.00 in0.0 mm 0.00 in0.0 mm 0.00 in0.0 mm
06:54 AM 39.2°F4.0°C 38.1°F3.4°C 71% 4.4 mph ENE7.1 kmh ENE 4.5 mph7.2 kmh 30.18 in1022.0 mb 0.00 in0.0 mm 0.00 in0.0 mm 0.00 in0.0 mm
06:57 AM 39.9°F4.4°C 37.8°F3.2°C 70% 5.6 mph ESE9.0 kmh ESE 5.7 mph9.2 kmh 30.18 in1022.0 mb 0.00 in0.0 mm 0.00 in0.0 mm 0.00 in0.0 mm
07:00 AM 39.7°F4.3°C 38.3°F3.5°C 70% 1.2 mph E1.9 kmh E 1.2 mph1.9 kmh 30.18 in1022.0 mb 0.00 in0.0 mm 0.00 in0.0 mm 0.00 in0.0 mm
07:03 AM 40.2°F4.6°C 37.9°F3.3°C 70% Calm Calm -- 30.18 in1022.0 mb 0.00 in0.0 mm 0.00 in0.0 mm 0.00 in0.0 mm
07:06 AM 41.5°F5.3°C 38.0°F3.3°C 69% 4.8 mph SE7.7 kmh SE 4.8 mph7.7 kmh 30.18 in1022.0 mb 0.00 in0.0 mm 0.00 in0.0 mm 0.00 in0.0 mm
07:09 AM 41.7°F5.4°C 38.5°F3.6°C 70% 9.1 mph ESE14.6 kmh ESE 9.1 mph14.6 kmh 30.18 in1022.0 mb 0.00 in0.0 mm 0.00 in0.0 mm 0.00 in0.0 mm
07:12 AM 42.2°F5.7°C 38.7°F3.7°C 70% 6.9 mph ESE11.1 kmh ESE 6.9 mph11.1 kmh 30.19 in1022.4 mb 0.00 in0.0 mm 0.00 in0.0 mm 0.00 in0.0 mm
07:15 AM 42.5°F5.8°C 38.1°F3.4°C 70% 7.2 mph E11.6 kmh E 7.2 mph11.6 kmh 30.18 in1022.0 mb 0.00 in0.0 mm 0.00 in0.0 mm 0.00 in0.0 mm
07:18 AM 42.9°F6.1°C 38.7°F3.7°C 70% 8.1 mph NNW13.0 kmh NNW 8.1 mph13.0 kmh 30.18 in1022.0 mb 0.00 in0.0 mm 0.00 in0.0 mm 0.00 in0.0 mm
07:21 AM 42.8°F6.0°C 39.0°F3.9°C 71% 4.4 mph E7.1 kmh E 4.5 mph7.2 kmh 30.18 in1022.0 mb 0.00 in0.0 mm 0.00 in0.0 mm 0.00 in0.0 mm
07:24 AM 42.9°F6.1°C 38.4°F3.6°C 69% 12.9 mph SE20.8 kmh SE 13.0 mph20.9 kmh 30.18 in1022.0 mb 0.00 in0.0 mm 0.00 in0.0 mm 0.00 in0.0 mm
07:27 AM 43.1°F6.2°C 38.2°F3.4°C 69% 12.9 mph NNW20.8 kmh NNW 13.0 mph20.9 kmh 30.19 in1022.4 mb 0.00 in0.0 mm 0.00 in0.0 mm 0.00 in0.0 mm
07:30 AM 43.3°F6.3°C 38.2°F3.4°C 68% 10.3 mph SE16.6 kmh SE 10.3 mph16.6 kmh 30.19 in1022.4 mb 0.00 in0.0 mm 0.00 in0.0 mm 0.00 in0.0 mm
07:33 AM 43.3°F6.3°C 38.3°F3.5°C 69% 7.6 mph NNW12.2 kmh NNW 7.7 mph12.4 kmh 30.18 in1022.0 mb 0.00 in0.0 mm 0.00 in0.0 mm 0.00 in0.0 mm
07:36 AM 43.5°F6.4°C 38.8°F3.8°C 70% 1.9 mph E3.1 kmh E 2.0 mph3.2 kmh 30.19 in1022.4 mb 0.00 in0.0 mm 0.00 in0.0 mm 0.00 in0.0 mm
07:39 AM 44.0°F6.7°C 38.9°F3.8°C 69% 6.1 mph NNW9.8 kmh NNW 6.1 mph9.8 kmh 30.18 in1022.0 mb 0.00 in0.0 mm 0.00 in0.0 mm 0.00 in0.0 mm
07:42 AM 44.0°F6.7°C 38.7°F3.7°C 68% 3.5 mph SSE5.6 kmh SSE 3.7 mph6.0 kmh 30.19 in1022.4 mb 0.00 in0.0 mm 0.00 in0.0 mm 0.00 in0.0 mm
07:45 AM 44.3°F6.8°C 39.1°F3.9°C 69% 9.3 mph ESE15.0 kmh ESE 9.4 mph15.1 kmh 30.19 in1022.4 mb 0.00 in0.0 mm 0.00 in0.0 mm 0.00 in0.0 mm
07:48 AM 44.5°F6.9°C 38.9°F3.8°C 68% 10.9 mph ESE17.5 kmh ESE 10.9 mph17.5 kmh 30.18 in1022.0 mb 0.00 in0.0 mm 0.00 in0.0 mm 0.00 in0.0 mm
07:51 AM 44.6°F7.0°C 38.5°F3.6°C 67% 12.3 mph ESE19.8 kmh ESE 12.3 mph19.8 kmh 30.18 in1022.0 mb 0.00 in0.0 mm 0.00 in0.0 mm 0.00 in0.0 mm
07:54 AM 44.6°F7.0°C 38.8°F3.8°C 68% 6.9 mph SE11.1 kmh SE 6.9 mph11.1 kmh 30.19 in1022.4 mb 0.00 in0.0 mm 0.00 in0.0 mm 0.00 in0.0 mm
07:57 AM 44.7°F7.1°C 39.1°F3.9°C 68% 5.6 mph E9.0 kmh E 5.7 mph9.2 kmh 30.19 in1022.4 mb 0.00 in0.0 mm 0.00 in0.0 mm 0.00 in0.0 mm
08:00 AM 44.9°F7.2°C 39.3°F4.1°C 67% 4.4 mph ESE7.1 kmh ESE 4.4 mph7.1 kmh 30.19 in1022.4 mb 0.00 in0.0 mm 0.00 in0.0 mm 0.00 in0.0 mm
08:03 AM 45.4°F7.4°C 39.8°F4.3°C 68% 10.0 mph SE16.1 kmh SE 10.0 mph16.1 kmh 30.19 in1022.4 mb 0.00 in0.0 mm 0.00 in0.0 mm 0.00 in0.0 mm
08:06 AM 45.2°F7.3°C 39.6°F4.2°C 68% 6.5 mph SE10.5 kmh SE 6.5 mph10.5 kmh 30.19 in1022.4 mb 0.00 in0.0 mm 0.00 in0.0 mm 0.00 in0.0 mm
08:09 AM 44.9°F7.2°C 39.2°F4.0°C 67% 6.1 mph E9.8 kmh E 6.1 mph9.8 kmh 30.19 in1022.4 mb 0.00 in0.0 mm 0.00 in0.0 mm 0.00 in0.0 mm
08:12 AM 44.9°F7.2°C 39.2°F4.0°C 68% 8.8 mph ESE14.2 kmh ESE 9.0 mph14.5 kmh 30.18 in1022.0 mb 0.00 in0.0 mm 0.00 in0.0 mm 0.00 in0.0 mm
08:15 AM 45.2°F7.3°C 39.6°F4.2°C 69% 9.7 mph E15.6 kmh E 9.8 mph15.8 kmh 30.19 in1022.4 mb 0.00 in0.0 mm 0.00 in0.0 mm 0.00 in0.0 mm
08:18 AM 45.4°F7.4°C 39.5°F4.2°C 68% 8.5 mph SE13.7 kmh SE 8.5 mph13.7 kmh 30.18 in1022.0 mb 0.00 in0.0 mm 0.00 in0.0 mm 0.00 in0.0 mm
08:21 AM 45.8°F7.7°C 40.5°F4.7°C 69% 7.7 mph ESE12.4 kmh ESE 7.7 mph12.4 kmh 30.19 in1022.4 mb 0.00 in0.0 mm 0.00 in0.0 mm 0.00 in0.0 mm
08:24 AM 45.5°F7.5°C 39.9°F4.4°C 68% 8.5 mph ESE13.7 kmh ESE 8.5 mph13.7 kmh 30.18 in1022.0 mb 0.00 in0.0 mm 0.00 in0.0 mm 0.00 in0.0 mm
08:27 AM 45.7°F7.6°C 40.0°F4.4°C 68% 7.7 mph SE12.4 kmh SE 7.7 mph12.4 kmh 30.18 in1022.0 mb 0.00 in0.0 mm 0.00 in0.0 mm 0.00 in0.0 mm
08:30 AM 45.7°F7.6°C 39.4°F4.1°C 66% 10.5 mph ESE16.9 kmh ESE 10.6 mph17.1 kmh 30.18 in1022.0 mb 0.00 in0.0 mm 0.00 in0.0 mm 0.00 in0.0 mm
08:33 AM 46.3°F7.9°C 40.3°F4.6°C 68% 9.6 mph ESE15.4 kmh ESE 9.6 mph15.4 kmh 30.18 in1022.0 mb 0.00 in0.0 mm 0.00 in0.0 mm 0.00 in0.0 mm
08:36 AM 46.1°F7.8°C 39.2°F4.0°C 65% 7.2 mph NNW11.6 kmh NNW 7.2 mph11.6 kmh 30.18 in1022.0 mb 0.00 in0.0 mm 0.00 in0.0 mm 0.00 in0.0 mm
08:39 AM 46.4°F8.0°C 40.4°F4.7°C 68% 7.7 mph NNW12.4 kmh NNW 7.7 mph12.4 kmh 30.18 in1022.0 mb 0.00 in0.0 mm 0.00 in0.0 mm 0.00 in0.0 mm
08:42 AM 46.4°F8.0°C 40.0°F4.4°C 67% 7.1 mph NNW11.4 kmh NNW 7.2 mph11.6 kmh 30.18 in1022.0 mb 0.00 in0.0 mm 0.00 in0.0 mm 0.00 in0.0 mm
08:45 AM 46.7°F8.2°C 40.3°F4.6°C 67% 10.7 mph ESE17.2 kmh ESE 10.8 mph17.4 kmh 30.18 in1022.0 mb 0.00 in0.0 mm 0.00 in0.0 mm 0.00 in0.0 mm
08:48 AM 46.7°F8.2°C 40.3°F4.6°C 67% 10.1 mph NNW16.3 kmh NNW 10.1 mph16.3 kmh 30.18 in1022.0 mb 0.00 in0.0 mm 0.00 in0.0 mm 0.00 in0.0 mm
08:51 AM 47.0°F8.3°C 40.3°F4.6°C 66% 8.0 mph ESE12.9 kmh ESE 8.0 mph12.9 kmh 30.18 in1022.0 mb 0.00 in0.0 mm 0.00 in0.0 mm 0.00 in0.0 mm
08:54 AM 47.1°F8.4°C 40.8°F4.9°C 67% 10.7 mph ESE17.2 kmh ESE 10.7 mph17.2 kmh 30.18 in1022.0 mb 0.00 in0.0 mm 0.00 in0.0 mm 0.00 in0.0 mm
08:57 AM 47.4°F8.6°C 40.7°F4.8°C 66% 8.8 mph SE14.2 kmh SE 8.9 mph14.3 kmh 30.18 in1022.0 mb 0.00 in0.0 mm 0.00 in0.0 mm 0.00 in0.0 mm
09:00 AM 48.0°F8.9°C 41.2°F5.1°C 66% 5.6 mph ESE9.0 kmh ESE 5.6 mph9.0 kmh 30.18 in1022.0 mb 0.00 in0.0 mm 0.00 in0.0 mm 0.00 in0.0 mm
09:03 AM 48.7°F9.3°C 42.1°F5.6°C 68% 6.0 mph SE9.7 kmh SE 6.0 mph9.7 kmh 30.18 in1022.0 mb 0.00 in0.0 mm 0.00 in0.0 mm 0.00 in0.0 mm
09:06 AM 47.9°F8.8°C 40.7°F4.8°C 64% 7.5 mph SE12.1 kmh SE 7.5 mph12.1 kmh 30.18 in1022.0 mb 0.00 in0.0 mm 0.00 in0.0 mm 0.00 in0.0 mm
09:09 AM 47.8°F8.8°C 40.5°F4.7°C 64% 6.5 mph SE10.5 kmh SE 6.5 mph10.5 kmh 30.18 in1022.0 mb 0.00 in0.0 mm 0.00 in0.0 mm 0.00 in0.0 mm
09:12 AM 48.8°F9.3°C 42.4°F5.8°C 68% 6.9 mph SE11.1 kmh SE 6.9 mph11.1 kmh 30.18 in1022.0 mb 0.00 in0.0 mm 0.00 in0.0 mm 0.00 in0.0 mm
09:15 AM 49.1°F9.5°C 42.2°F5.7°C 66% 6.9 mph SE11.1 kmh SE 6.9 mph11.1 kmh 30.18 in1022.0 mb 0.00 in0.0 mm 0.00 in0.0 mm 0.00 in0.0 mm
09:18 AM 49.0°F9.4°C 41.7°F5.4°C 64% 5.2 mph SE8.4 kmh SE 5.2 mph8.4 kmh 30.18 in1022.0 mb 0.00 in0.0 mm 0.00 in0.0 mm 0.00 in0.0 mm
09:21 AM 49.3°F9.6°C 41.7°F5.4°C 64% 6.1 mph SE9.8 kmh SE 6.1 mph9.8 kmh 30.18 in1022.0 mb 0.00 in0.0 mm 0.00 in0.0 mm 0.00 in0.0 mm
09:24 AM 49.0°F9.4°C 41.8°F5.4°C 64% 6.4 mph NNW10.3 kmh NNW 6.4 mph10.3 kmh 30.18 in1022.0 mb 0.00 in0.0 mm 0.00 in0.0 mm 0.00 in0.0 mm
09:27 AM 49.6°F9.8°C 42.5°F5.8°C 65% 5.7 mph SE9.2 kmh SE 5.7 mph9.2 kmh 30.18 in1022.0 mb 0.00 in0.0 mm 0.00 in0.0 mm 0.00 in0.0 mm
09:30 AM 49.3°F9.6°C 42.2°F5.7°C 65% 8.5 mph SE13.7 kmh SE 8.6 mph13.8 kmh 30.18 in1022.0 mb 0.00 in0.0 mm 0.00 in0.0 mm 0.00 in0.0 mm
09:33 AM 49.4°F9.7°C 42.5°F5.8°C 65% 9.7 mph SE15.6 kmh SE 9.8 mph15.8 kmh 30.18 in1022.0 mb 0.00 in0.0 mm 0.00 in0.0 mm 0.00 in0.0 mm
09:36 AM 49.2°F9.6°C 41.6°F5.3°C 63% 6.9 mph NNW11.1 kmh NNW 6.9 mph11.1 kmh 30.18 in1022.0 mb 0.00 in0.0 mm 0.00 in0.0 mm 0.00 in0.0 mm
09:39 AM 49.7°F9.8°C 42.4°F5.8°C 65% 7.2 mph NNW11.6 kmh NNW 7.2 mph11.6 kmh 30.18 in1022.0 mb 0.00 in0.0 mm 0.00 in0.0 mm 0.00 in0.0 mm
09:42 AM 49.7°F9.8°C 42.0°F5.6°C 64% 10.1 mph ESE16.3 kmh ESE 10.2 mph16.4 kmh 30.18 in1022.0 mb 0.00 in0.0 mm 0.00 in0.0 mm 0.00 in0.0 mm
09:45 AM 49.7°F9.8°C 41.2°F5.1°C 62% 8.1 mph SE13.0 kmh SE 8.1 mph13.0 kmh 30.18 in1022.0 mb 0.00 in0.0 mm 0.00 in0.0 mm 0.00 in0.0 mm
09:48 AM 50.2°F10.1°C 42.7°F5.9°C 65% 6.3 mph ESE10.1 kmh ESE 6.3 mph10.1 kmh 30.18 in1022.0 mb 0.00 in0.0 mm 0.00 in0.0 mm 0.00 in0.0 mm
09:51 AM 50.1°F10.1°C 41.3°F5.2°C 61% 6.4 mph SE10.3 kmh SE 6.5 mph10.5 kmh 30.18 in1022.0 mb 0.00 in0.0 mm 0.00 in0.0 mm 0.00 in0.0 mm
09:54 AM 50.6°F10.3°C 42.8°F6.0°C 63% 8.4 mph ESE13.5 kmh ESE 8.4 mph13.5 kmh 30.18 in1022.0 mb 0.00 in0.0 mm 0.00 in0.0 mm 0.00 in0.0 mm
09:57 AM 50.1°F10.1°C 41.7°F5.4°C 60% 7.3 mph SE11.7 kmh SE 7.4 mph11.9 kmh 30.18 in1022.0 mb 0.00 in0.0 mm 0.00 in0.0 mm 0.00 in0.0 mm
10:00 AM 51.0°F10.6°C 43.6°F6.4°C 65% 7.6 mph ESE12.2 kmh ESE 7.8 mph12.6 kmh 30.18 in1022.0 mb 0.00 in0.0 mm 0.00 in0.0 mm 0.00 in0.0 mm
10:03 AM 50.8°F10.4°C 42.7°F5.9°C 62% 8.5 mph ESE13.7 kmh ESE 8.6 mph13.8 kmh 30.18 in1022.0 mb 0.00 in0.0 mm 0.00 in0.0 mm 0.00 in0.0 mm
10:06 AM 50.9°F10.5°C 43.1°F6.2°C 62% 8.1 mph NNW13.0 kmh NNW 8.2 mph13.2 kmh 30.17 in1021.7 mb 0.00 in0.0 mm 0.00 in0.0 mm 0.00 in0.0 mm
10:09 AM 51.0°F10.6°C 43.4°F6.3°C 63% 14.1 mph ESE22.7 kmh ESE 14.1 mph22.7 kmh 30.17 in1021.7 mb 0.00 in0.0 mm 0.00 in0.0 mm 0.00 in0.0 mm
10:12 AM 51.1°F10.6°C 43.3°F6.3°C 62% 6.1 mph ESE9.8 kmh ESE 6.2 mph10.0 kmh 30.17 in1021.7 mb 0.00 in0.0 mm 0.00 in0.0 mm 0.00 in0.0 mm
10:15 AM 51.5°F10.8°C 43.5°F6.4°C 62% 8.0 mph SSE12.9 kmh SSE 8.0 mph12.9 kmh 30.17 in1021.7 mb 0.00 in0.0 mm 0.00 in0.0 mm 0.00 in0.0 mm
10:18 AM 51.4°F10.8°C 43.1°F6.2°C 61% 11.5 mph SE18.5 kmh SE 11.6 mph18.7 kmh 30.17 in1021.7 mb 0.00 in0.0 mm 0.00 in0.0 mm 0.00 in0.0 mm
10:21 AM 51.4°F10.8°C 43.4°F6.3°C 62% 5.6 mph SSE9.0 kmh SSE 5.7 mph9.2 kmh 30.17 in1021.7 mb 0.00 in0.0 mm 0.00 in0.0 mm 0.00 in0.0 mm
10:24 AM 51.5°F10.8°C 43.9°F6.6°C 63% 9.7 mph SE15.6 kmh SE 9.8 mph15.8 kmh 30.17 in1021.7 mb 0.00 in0.0 mm 0.00 in0.0 mm 0.00 in0.0 mm
10:27 AM 51.5°F10.8°C 43.4°F6.3°C 61% 6.4 mph SSE10.3 kmh SSE 6.4 mph10.3 kmh 30.17 in1021.7 mb 0.00 in0.0 mm 0.00 in0.0 mm 0.00 in0.0 mm
10:30 AM 51.4°F10.8°C 42.9°F6.1°C 60% 6.9 mph NNW11.1 kmh NNW 6.9 mph11.1 kmh 30.17 in1021.7 mb 0.00 in0.0 mm 0.00 in0.0 mm 0.00 in0.0 mm
10:33 AM 51.8°F11.0°C 44.0°F6.7°C 62% 11.2 mph SE18.0 kmh SE 11.2 mph18.0 kmh 30.17 in1021.7 mb 0.00 in0.0 mm 0.00 in0.0 mm 0.00 in0.0 mm
10:36 AM 52.0°F11.1°C 44.8°F7.1°C 64% 10.1 mph SE16.3 kmh SE 10.2 mph16.4 kmh 30.17 in1021.7 mb 0.00 in0.0 mm 0.00 in0.0 mm 0.00 in0.0 mm
10:39 AM 51.2°F10.7°C 43.2°F6.2°C 61% 8.9 mph SE14.3 kmh SE 9.0 mph14.5 kmh 30.17 in1021.7 mb 0.00 in0.0 mm 0.00 in0.0 mm 0.00 in0.0 mm
10:42 AM 51.6°F10.9°C 44.1°F6.7°C 62% 12.9 mph SE20.8 kmh SE 13.0 mph20.9 kmh 30.17 in1021.7 mb 0.00 in0.0 mm 0.00 in0.0 mm 0.00 in0.0 mm
10:45 AM 51.5°F10.8°C 44.0°F6.7°C 63% 11.9 mph SE19.2 kmh SE 12.0 mph19.3 kmh 30.17 in1021.7 mb 0.00 in0.0 mm 0.00 in0.0 mm 0.00 in0.0 mm
10:48 AM 51.5°F10.8°C 43.9°F6.6°C 62% 8.9 mph NNW14.3 kmh NNW 9.0 mph14.5 kmh 30.17 in1021.7 mb 0.00 in0.0 mm 0.00 in0.0 mm 0.00 in0.0 mm
10:51 AM 51.8°F11.0°C 44.2°F6.8°C 62% 10.8 mph SE17.4 kmh SE 10.9 mph17.5 kmh 30.17 in1021.7 mb 0.00 in0.0 mm 0.00 in0.0 mm 0.00 in0.0 mm
10:54 AM 51.9°F11.1°C 44.1°F6.7°C 61% 8.3 mph SE13.4 kmh SE 8.5 mph13.7 kmh 30.16 in1021.3 mb 0.00 in0.0 mm 0.00 in0.0 mm 0.00 in0.0 mm
11:00 AM 52.0°F11.1°C 44.1°F6.7°C 60% 10.7 mph ESE17.2 kmh ESE 10.7 mph17.2 kmh 30.16 in1021.3 mb 0.00 in0.0 mm 0.00 in0.0 mm 0.00 in0.0 mm
11:03 AM 52.5°F11.4°C 44.9°F7.2°C 62% 13.3 mph ESE21.4 kmh ESE 13.4 mph21.6 kmh 30.16 in1021.3 mb 0.00 in0.0 mm 0.00 in0.0 mm 0.00 in0.0 mm
11:06 AM 52.3°F11.3°C 44.6°F7.0°C 61% 4.4 mph ESE7.1 kmh ESE 4.8 mph7.7 kmh 30.16 in1021.3 mb 0.00 in0.0 mm 0.00 in0.0 mm 0.00 in0.0 mm
11:09 AM 52.1°F11.2°C 43.8°F6.6°C 58% 5.4 mph NNW8.7 kmh NNW 5.4 mph8.7 kmh 30.16 in1021.3 mb 0.00 in0.0 mm 0.00 in0.0 mm 0.00 in0.0 mm
11:12 AM 53.0°F11.7°C 45.9°F7.7°C 63% 9.9 mph SE15.9 kmh SE 9.9 mph15.9 kmh 30.16 in1021.3 mb 0.00 in0.0 mm 0.00 in0.0 mm 0.00 in0.0 mm
11:15 AM 53.0°F11.7°C 45.0°F7.2°C 60% 5.6 mph SE9.0 kmh SE 5.6 mph9.0 kmh 30.16 in1021.3 mb 0.00 in0.0 mm 0.00 in0.0 mm 0.00 in0.0 mm
11:18 AM 53.3°F11.8°C 45.4°F7.4°C 61% 8.1 mph ESE13.0 kmh ESE 8.1 mph13.0 kmh 30.16 in1021.3 mb 0.00 in0.0 mm 0.00 in0.0 mm 0.00 in0.0 mm
11:21 AM 53.5°F11.9°C 45.9°F7.7°C 61% 9.3 mph NNW15.0 kmh NNW 9.4 mph15.1 kmh 30.16 in1021.3 mb 0.00 in0.0 mm 0.00 in0.0 mm 0.00 in0.0 mm
11:24 AM 53.6°F12.0°C 45.7°F7.6°C 60% 8.0 mph SE12.9 kmh SE 8.0 mph12.9 kmh 30.16 in1021.3 mb 0.00 in0.0 mm 0.00 in0.0 mm 0.00 in0.0 mm
11:27 AM 53.4°F11.9°C 44.7°F7.1°C 59% 11.1 mph SE17.9 kmh SE 11.2 mph18.0 kmh 30.16 in1021.3 mb 0.00 in0.0 mm 0.00 in0.0 mm 0.00 in0.0 mm
11:30 AM 53.5°F11.9°C 45.5°F7.5°C 60% 12.1 mph SE19.5 kmh SE 12.2 mph19.6 kmh 30.16 in1021.3 mb 0.00 in0.0 mm 0.00 in0.0 mm 0.00 in0.0 mm
11:33 AM 53.4°F11.9°C 45.2°F7.3°C 60% 9.9 mph SE15.9 kmh SE 10.0 mph16.1 kmh 30.16 in1021.3 mb 0.00 in0.0 mm 0.00 in0.0 mm 0.00 in0.0 mm
11:36 AM 53.8°F12.1°C 45.5°F7.5°C 60% 10.3 mph SE16.6 kmh SE 10.4 mph16.7 kmh 30.16 in1021.3 mb 0.00 in0.0 mm 0.00 in0.0 mm 0.00 in0.0 mm
11:39 AM 54.1°F12.3°C 45.9°F7.7°C 60% 8.1 mph NNW13.0 kmh NNW 8.1 mph13.0 kmh 30.15 in1021.0 mb 0.00 in0.0 mm 0.00 in0.0 mm 0.00 in0.0 mm
11:45 AM 54.5°F12.5°C 45.1°F7.3°C 57% 8.1 mph SE13.0 kmh SE 8.2 mph13.2 kmh 30.15 in1021.0 mb 0.00 in0.0 mm 0.00 in0.0 mm 0.00 in0.0 mm
11:51 AM 54.8°F12.7°C 45.8°F7.7°C 58% 7.6 mph ESE12.2 kmh ESE 7.6 mph12.2 kmh 30.15 in1021.0 mb 0.00 in0.0 mm 0.00 in0.0 mm 0.00 in0.0 mm
11:54 AM 54.4°F12.4°C 44.8°F7.1°C 56% 10.1 mph NNW16.3 kmh NNW 10.2 mph16.4 kmh 30.15 in1021.0 mb 0.00 in0.0 mm 0.00 in0.0 mm 0.00 in0.0 mm
11:57 AM 54.5°F12.5°C 45.8°F7.7°C 59% 11.7 mph ESE18.8 kmh ESE 11.8 mph19.0 kmh 30.15 in1021.0 mb 0.00 in0.0 mm 0.00 in0.0 mm 0.00 in0.0 mm
12:03 PM 55.5°F13.1°C 45.9°F7.7°C 58% 6.0 mph SE9.7 kmh SE 6.0 mph9.7 kmh 30.15 in1021.0 mb 0.00 in0.0 mm 0.00 in0.0 mm 0.00 in0.0 mm
12:06 PM 55.3°F12.9°C 45.2°F7.3°C 56% 7.3 mph ESE11.7 kmh ESE 7.3 mph11.7 kmh 30.15 in1021.0 mb 0.00 in0.0 mm 0.00 in0.0 mm 0.00 in0.0 mm
12:09 PM 55.3°F12.9°C 44.9°F7.2°C 55% 8.8 mph SE14.2 kmh SE 8.8 mph14.2 kmh 30.15 in1021.0 mb 0.00 in0.0 mm 0.00 in0.0 mm 0.00 in0.0 mm
12:12 PM 54.7°F12.6°C 44.7°F7.1°C 55% 7.3 mph SE11.7 kmh SE 7.4 mph11.9 kmh 30.14 in1020.7 mb 0.00 in0.0 mm 0.00 in0.0 mm 0.00 in0.0 mm
12:15 PM 53.9°F12.2°C 45.2°F7.3°C 58% 10.7 mph SE17.2 kmh SE 10.8 mph17.4 kmh 30.14 in1020.7 mb 0.00 in0.0 mm 0.00 in0.0 mm 0.00 in0.0 mm
12:18 PM 54.7°F12.6°C 45.2°F7.3°C 58% 8.0 mph ESE12.9 kmh ESE 8.1 mph13.0 kmh 30.14 in1020.7 mb 0.00 in0.0 mm 0.00 in0.0 mm 0.00 in0.0 mm
12:21 PM 55.6°F13.1°C 45.8°F7.7°C 57% 4.6 mph SE7.4 kmh SE 4.7 mph7.6 kmh 30.14 in1020.7 mb 0.00 in0.0 mm 0.00 in0.0 mm 0.00 in0.0 mm
12:24 PM 55.3°F12.9°C 45.2°F7.3°C 55% 6.0 mph S9.7 kmh S 6.1 mph9.8 kmh 30.14 in1020.7 mb 0.00 in0.0 mm 0.00 in0.0 mm 0.00 in0.0 mm
12:27 PM 56.0°F13.3°C 45.5°F7.5°C 55% 9.9 mph SE15.9 kmh SE 9.9 mph15.9 kmh 30.14 in1020.7 mb 0.00 in0.0 mm 0.00 in0.0 mm 0.00 in0.0 mm
12:30 PM 55.4°F13.0°C 44.5°F6.9°C 53% 6.0 mph NNW9.7 kmh NNW 6.1 mph9.8 kmh 30.14 in1020.7 mb 0.00 in0.0 mm 0.00 in0.0 mm 0.00 in0.0 mm
12:33 PM 55.2°F12.9°C 45.1°F7.3°C 55% 10.5 mph SE16.9 kmh SE 10.6 mph17.1 kmh 30.14 in1020.7 mb 0.00 in0.0 mm 0.00 in0.0 mm 0.00 in0.0 mm
12:36 PM 55.9°F13.3°C 45.3°F7.4°C 54% 7.3 mph SE11.7 kmh SE 7.3 mph11.7 kmh 30.14 in1020.7 mb 0.00 in0.0 mm 0.00 in0.0 mm 0.00 in0.0 mm
12:39 PM 55.9°F13.3°C 45.2°F7.3°C 54% 6.9 mph SE11.1 kmh SE 6.9 mph11.1 kmh 30.14 in1020.7 mb 0.00 in0.0 mm 0.00 in0.0 mm 0.00 in0.0 mm
12:42 PM 56.4°F13.6°C 46.2°F7.9°C 55% 8.9 mph SE14.3 kmh SE 8.9 mph14.3 kmh 30.14 in1020.7 mb 0.00 in0.0 mm 0.00 in0.0 mm 0.00 in0.0 mm
12:45 PM 56.1°F13.4°C 45.6°F7.6°C 54% 6.9 mph SE11.1 kmh SE 6.9 mph11.1 kmh 30.14 in1020.7 mb 0.00 in0.0 mm 0.00 in0.0 mm 0.00 in0.0 mm
12:48 PM 55.2°F12.9°C 44.8°F7.1°C 53% 6.9 mph SE11.1 kmh SE 6.9 mph11.1 kmh 30.14 in1020.7 mb 0.00 in0.0 mm 0.00 in0.0 mm 0.00 in0.0 mm
12:51 PM 55.5°F13.1°C 44.6°F7.0°C 53% 6.1 mph NNW9.8 kmh NNW 6.2 mph10.0 kmh 30.13 in1020.3 mb 0.00 in0.0 mm 0.00 in0.0 mm 0.00 in0.0 mm
12:54 PM 56.6°F13.7°C 45.6°F7.6°C 54% 8.4 mph SE13.5 kmh SE 8.4 mph13.5 kmh 30.13 in1020.3 mb 0.00 in0.0 mm 0.00 in0.0 mm 0.00 in0.0 mm
12:57 PM 56.1°F13.4°C 45.5°F7.5°C 54% 13.8 mph SE22.2 kmh SE 14.0 mph22.5 kmh 30.13 in1020.3 mb 0.00 in0.0 mm 0.00 in0.0 mm 0.00 in0.0 mm
01:00 PM 56.5°F13.6°C 46.2°F7.9°C 56% 9.9 mph ESE15.9 kmh ESE 9.9 mph15.9 kmh 30.13 in1020.3 mb 0.00 in0.0 mm 0.00 in0.0 mm 0.00 in0.0 mm
01:03 PM 57.0°F13.9°C 45.2°F7.3°C 53% 3.8 mph SSE6.1 kmh SSE 3.8 mph6.1 kmh 30.13 in1020.3 mb 0.00 in0.0 mm 0.00 in0.0 mm 0.00 in0.0 mm
01:06 PM 56.5°F13.6°C 45.4°F7.4°C 53% 5.7 mph ESE9.2 kmh ESE 5.7 mph9.2 kmh 30.12 in1020.0 mb 0.00 in0.0 mm 0.00 in0.0 mm 0.00 in0.0 mm
01:09 PM 56.9°F13.8°C 46.1°F7.8°C 54% 7.7 mph E12.4 kmh E 7.7 mph12.4 kmh 30.12 in1020.0 mb 0.00 in0.0 mm 0.00 in0.0 mm 0.00 in0.0 mm
01:12 PM 56.9°F13.8°C 45.4°F7.4°C 52% 7.6 mph NNW12.2 kmh NNW 7.6 mph12.2 kmh 30.12 in1020.0 mb 0.00 in0.0 mm 0.00 in0.0 mm 0.00 in0.0 mm
01:15 PM 56.8°F13.8°C 45.3°F7.4°C 52% 10.5 mph SE16.9 kmh SE 10.5 mph16.9 kmh 30.12 in1020.0 mb 0.00 in0.0 mm 0.00 in0.0 mm 0.00 in0.0 mm
01:18 PM 55.4°F13.0°C 44.2°F6.8°C 51% 6.4 mph SE10.3 kmh SE 6.5 mph10.5 kmh 30.12 in1020.0 mb 0.00 in0.0 mm 0.00 in0.0 mm 0.00 in0.0 mm
01:21 PM 55.9°F13.3°C 44.7°F7.1°C 52% 7.5 mph SE12.1 kmh SE 7.5 mph12.1 kmh 30.12 in1020.0 mb 0.00 in0.0 mm 0.00 in0.0 mm 0.00 in0.0 mm
01:24 PM 56.0°F13.3°C 44.4°F6.9°C 52% 6.5 mph ESE10.5 kmh ESE 6.6 mph10.6 kmh 30.12 in1020.0 mb 0.00 in0.0 mm 0.00 in0.0 mm 0.00 in0.0 mm
01:27 PM 56.5°F13.6°C 45.7°F7.6°C 54% 8.9 mph SE14.3 kmh SE 8.9 mph14.3 kmh 30.12 in1020.0 mb 0.00 in0.0 mm 0.00 in0.0 mm 0.00 in0.0 mm
01:30 PM 56.4°F13.6°C 45.8°F7.7°C 54% 4.9 mph SE7.9 kmh SE 4.9 mph7.9 kmh 30.12 in1020.0 mb 0.00 in0.0 mm 0.00 in0.0 mm 0.00 in0.0 mm
01:33 PM 56.9°F13.8°C 46.6°F8.1°C 55% 11.3 mph ESE18.2 kmh ESE 11.3 mph18.2 kmh 30.12 in1020.0 mb 0.00 in0.0 mm 0.00 in0.0 mm 0.00 in0.0 mm
01:36 PM 56.8°F13.8°C 44.7°F7.1°C 52% 8.4 mph SE13.5 kmh SE 8.4 mph13.5 kmh 30.12 in1020.0 mb 0.00 in0.0 mm 0.00 in0.0 mm 0.00 in0.0 mm
01:39 PM 56.8°F13.8°C 45.1°F7.3°C 53% 7.7 mph SSE12.4 kmh SSE 7.7 mph12.4 kmh 30.12 in1020.0 mb 0.00 in0.0 mm 0.00 in0.0 mm 0.00 in0.0 mm
01:42 PM 57.1°F13.9°C 45.0°F7.2°C 52% 7.7 mph SSE12.4 kmh SSE 7.7 mph12.4 kmh 30.12 in1020.0 mb 0.00 in0.0 mm 0.00 in0.0 mm 0.00 in0.0 mm
01:45 PM 57.1°F13.9°C 44.9°F7.2°C 51% 7.2 mph SE11.6 kmh SE 7.2 mph11.6 kmh 30.11 in1019.6 mb 0.00 in0.0 mm 0.00 in0.0 mm 0.00 in0.0 mm
01:48 PM 56.6°F13.7°C 45.1°F7.3°C 51% 3.2 mph S5.1 kmh S 3.3 mph5.3 kmh 30.11 in1019.6 mb 0.00 in0.0 mm 0.00 in0.0 mm 0.00 in0.0 mm
01:51 PM 56.9°F13.8°C 45.0°F7.2°C 50% 4.9 mph NNW7.9 kmh NNW 4.9 mph7.9 kmh 30.11 in1019.6 mb 0.00 in0.0 mm 0.00 in0.0 mm 0.00 in0.0 mm
01:54 PM 57.8°F14.3°C 46.4°F8.0°C 53% 8.1 mph SE13.0 kmh SE 8.2 mph13.2 kmh 30.11 in1019.6 mb 0.00 in0.0 mm 0.00 in0.0 mm 0.00 in0.0 mm
01:57 PM 57.3°F14.1°C 44.4°F6.9°C 49% 3.6 mph SE5.8 kmh SE 3.7 mph6.0 kmh 30.11 in1019.6 mb 0.00 in0.0 mm 0.00 in0.0 mm 0.00 in0.0 mm
02:00 PM 57.8°F14.3°C 45.6°F7.6°C 51% 6.1 mph SE9.8 kmh SE 6.1 mph9.8 kmh 30.11 in1019.6 mb 0.00 in0.0 mm 0.00 in0.0 mm 0.00 in0.0 mm
02:03 PM 57.0°F13.9°C 44.4°F6.9°C 49% 4.8 mph NNW7.7 kmh NNW 4.8 mph7.7 kmh 30.11 in1019.6 mb 0.00 in0.0 mm 0.00 in0.0 mm 0.00 in0.0 mm
02:06 PM 57.8°F14.3°C 45.6°F7.6°C 51% 9.2 mph SE14.8 kmh SE 9.2 mph14.8 kmh 30.11 in1019.6 mb 0.00 in0.0 mm 0.00 in0.0 mm 0.00 in0.0 mm
02:09 PM 57.3°F14.1°C 44.5°F6.9°C 49% 3.6 mph SE5.8 kmh SE 3.7 mph6.0 kmh 30.10 in1019.3 mb 0.00 in0.0 mm 0.00 in0.0 mm 0.00 in0.0 mm
02:12 PM 57.4°F14.1°C 45.4°F7.4°C 51% 5.6 mph NNW9.0 kmh NNW 5.6 mph9.0 kmh 30.10 in1019.3 mb 0.00 in0.0 mm 0.00 in0.0 mm 0.00 in0.0 mm
02:15 PM 57.3°F14.1°C 45.2°F7.3°C 50% 5.2 mph SE8.4 kmh SE 5.2 mph8.4 kmh 30.10 in1019.3 mb 0.00 in0.0 mm 0.00 in0.0 mm 0.00 in0.0 mm
02:18 PM 57.5°F14.2°C 46.0°F7.8°C 52% 7.3 mph NNW11.7 kmh NNW 7.3 mph11.7 kmh 30.09 in1019.0 mb 0.00 in0.0 mm 0.00 in0.0 mm 0.00 in0.0 mm
02:21 PM 56.8°F13.8°C 44.3°F6.8°C 48% 3.2 mph SE5.1 kmh SE 3.2 mph5.1 kmh 30.10 in1019.3 mb 0.00 in0.0 mm 0.00 in0.0 mm 0.00 in0.0 mm
02:24 PM 57.8°F14.3°C 45.4°F7.4°C 51% 9.7 mph SE15.6 kmh SE 9.8 mph15.8 kmh 30.09 in1019.0 mb 0.00 in0.0 mm 0.00 in0.0 mm 0.00 in0.0 mm
02:27 PM 57.4°F14.1°C 45.0°F7.2°C 50% 8.0 mph E12.9 kmh E 8.1 mph13.0 kmh 30.09 in1019.0 mb 0.00 in0.0 mm 0.00 in0.0 mm 0.00 in0.0 mm
02:30 PM 58.0°F14.4°C 46.0°F7.8°C 52% 10.1 mph ESE16.3 kmh ESE 10.2 mph16.4 kmh 30.09 in1019.0 mb 0.00 in0.0 mm 0.00 in0.0 mm 0.00 in0.0 mm
02:33 PM 57.7°F14.3°C 46.5°F8.1°C 53% 6.5 mph E10.5 kmh E 6.5 mph10.5 kmh 30.09 in1019.0 mb 0.00 in0.0 mm 0.00 in0.0 mm 0.00 in0.0 mm
02:36 PM 57.7°F14.3°C 45.4°F7.4°C 50% 5.4 mph ESE8.7 kmh ESE 5.4 mph8.7 kmh 30.09 in1019.0 mb 0.00 in0.0 mm 0.00 in0.0 mm 0.00 in0.0 mm
02:39 PM 58.0°F14.4°C 46.8°F8.2°C 53% 5.8 mph SE9.3 kmh SE 5.9 mph9.5 kmh 30.09 in1019.0 mb 0.00 in0.0 mm 0.00 in0.0 mm 0.00 in0.0 mm
02:42 PM 58.4°F14.7°C 47.4°F8.6°C 53% 6.9 mph ESE11.1 kmh ESE 6.9 mph11.1 kmh 30.09 in1019.0 mb 0.00 in0.0 mm 0.00 in0.0 mm 0.00 in0.0 mm
02:45 PM 57.7°F14.3°C 45.9°F7.7°C 51% 7.2 mph SE11.6 kmh SE 7.3 mph11.7 kmh 30.09 in1019.0 mb 0.00 in0.0 mm 0.00 in0.0 mm 0.00 in0.0 mm
02:48 PM 57.8°F14.3°C 46.6°F8.1°C 53% 10.7 mph NNW17.2 kmh NNW 10.8 mph17.4 kmh 30.09 in1019.0 mb 0.00 in0.0 mm 0.00 in0.0 mm 0.00 in0.0 mm
02:51 PM 58.4°F14.7°C 47.2°F8.4°C 54% 4.0 mph ESE6.4 kmh ESE 4.1 mph6.6 kmh 30.08 in1018.6 mb 0.00 in0.0 mm 0.00 in0.0 mm 0.00 in0.0 mm
02:54 PM 58.0°F14.4°C 46.1°F7.8°C 51% 8.9 mph ESE14.3 kmh ESE 9.0 mph14.5 kmh 30.08 in1018.6 mb 0.00 in0.0 mm 0.00 in0.0 mm 0.00 in0.0 mm
02:57 PM 57.1°F13.9°C 45.2°F7.3°C 51% 10.4 mph SE16.7 kmh SE 10.4 mph16.7 kmh 30.09 in1019.0 mb 0.00 in0.0 mm 0.00 in0.0 mm 0.00 in0.0 mm
03:00 PM 57.8°F14.3°C 46.1°F7.8°C 53% 9.7 mph SE15.6 kmh SE 9.8 mph15.8 kmh 30.08 in1018.6 mb 0.00 in0.0 mm 0.00 in0.0 mm 0.00 in0.0 mm
03:03 PM 57.5°F14.2°C 45.5°F7.5°C 52% 5.7 mph NNW9.2 kmh NNW 5.7 mph9.2 kmh 30.08 in1018.6 mb 0.00 in0.0 mm 0.00 in0.0 mm 0.00 in0.0 mm
03:06 PM 57.7°F14.3°C 45.7°F7.6°C 52% 13.9 mph ESE22.4 kmh ESE 13.9 mph22.4 kmh 30.08 in1018.6 mb 0.00 in0.0 mm 0.00 in0.0 mm 0.00 in0.0 mm
03:09 PM 57.0°F13.9°C 45.1°F7.3°C 51% 9.7 mph SE15.6 kmh SE 9.7 mph15.6 kmh 30.08 in1018.6 mb 0.00 in0.0 mm 0.00 in0.0 mm 0.00 in0.0 mm
03:12 PM 57.5°F14.2°C 46.0°F7.8°C 54% 6.9 mph SE11.1 kmh SE 6.9 mph11.1 kmh 30.07 in1018.3 mb 0.00 in0.0 mm 0.00 in0.0 mm 0.00 in0.0 mm
03:15 PM 57.3°F14.1°C 45.9°F7.7°C 54% 7.7 mph SSE12.4 kmh SSE 7.7 mph12.4 kmh 30.08 in1018.6 mb 0.00 in0.0 mm 0.00 in0.0 mm 0.00 in0.0 mm
03:18 PM 57.7°F14.3°C 45.1°F7.3°C 52% 10.7 mph SE17.2 kmh SE 10.8 mph17.4 kmh 30.08 in1018.6 mb 0.00 in0.0 mm 0.00 in0.0 mm 0.00 in0.0 mm
03:21 PM 57.4°F14.1°C 45.0°F7.2°C 52% 8.3 mph SE13.4 kmh SE 8.3 mph13.4 kmh 30.08 in1018.6 mb 0.00 in0.0 mm 0.00 in0.0 mm 0.00 in0.0 mm
03:24 PM 57.5°F14.2°C 46.1°F7.8°C 54% 6.5 mph ESE10.5 kmh ESE 6.5 mph10.5 kmh 30.08 in1018.6 mb 0.00 in0.0 mm 0.00 in0.0 mm 0.00 in0.0 mm
03:27 PM 58.1°F14.5°C 46.1°F7.8°C 53% 4.5 mph ESE7.2 kmh ESE 4.5 mph7.2 kmh 30.07 in1018.3 mb 0.00 in0.0 mm 0.00 in0.0 mm 0.00 in0.0 mm
03:30 PM 58.2°F14.6°C 45.9°F7.7°C 53% 7.3 mph SSE11.7 kmh SSE 7.3 mph11.7 kmh 30.07 in1018.3 mb 0.00 in0.0 mm 0.00 in0.0 mm 0.00 in0.0 mm
03:33 PM 57.1°F13.9°C 44.6°F7.0°C 50% 9.1 mph SSE14.6 kmh SSE 9.2 mph14.8 kmh 30.07 in1018.3 mb 0.00 in0.0 mm 0.00 in0.0 mm 0.00 in0.0 mm
03:36 PM 57.2°F14.0°C 45.3°F7.4°C 51% 6.5 mph NNW10.5 kmh NNW 6.5 mph10.5 kmh 30.07 in1018.3 mb 0.00 in0.0 mm 0.00 in0.0 mm 0.00 in0.0 mm
03:39 PM 57.8°F14.3°C 45.5°F7.5°C 51% 8.1 mph ESE13.0 kmh ESE 8.1 mph13.0 kmh 30.07 in1018.3 mb 0.00 in0.0 mm 0.00 in0.0 mm 0.00 in0.0 mm
03:42 PM 57.8°F14.3°C 44.9°F7.2°C 51% 8.3 mph SSE13.4 kmh SSE 8.4 mph13.5 kmh 30.07 in1018.3 mb 0.00 in0.0 mm 0.00 in0.0 mm 0.00 in0.0 mm
03:45 PM 58.7°F14.8°C 44.9°F7.2°C 51% 6.1 mph ESE9.8 kmh ESE 6.5 mph10.5 kmh 30.07 in1018.3 mb 0.00 in0.0 mm 0.00 in0.0 mm 0.00 in0.0 mm
03:48 PM 58.0°F14.4°C 44.3°F6.8°C 49% 5.0 mph SE8.0 kmh SE 5.0 mph8.0 kmh 30.07 in1018.3 mb 0.00 in0.0 mm 0.00 in0.0 mm 0.00 in0.0 mm
03:51 PM 58.2°F14.6°C 45.2°F7.3°C 51% 9.2 mph NNW14.8 kmh NNW 9.2 mph14.8 kmh 30.07 in1018.3 mb 0.00 in0.0 mm 0.00 in0.0 mm 0.00 in0.0 mm
03:54 PM 58.1°F14.5°C 43.9°F6.6°C 49% 9.8 mph SE15.8 kmh SE 9.8 mph15.8 kmh 30.07 in1018.3 mb 0.00 in0.0 mm 0.00 in0.0 mm 0.00 in0.0 mm
03:57 PM 58.0°F14.4°C 44.8°F7.1°C 51% 6.7 mph SE10.8 kmh SE 6.7 mph10.8 kmh 30.07 in1018.3 mb 0.00 in0.0 mm 0.00 in0.0 mm 0.00 in0.0 mm
04:00 PM 57.9°F14.4°C 44.3°F6.8°C 49% 4.4 mph NNW7.1 kmh NNW 4.4 mph7.1 kmh 30.07 in1018.3 mb 0.00 in0.0 mm 0.00 in0.0 mm 0.00 in0.0 mm
04:03 PM 58.2°F14.6°C 44.6°F7.0°C 50% 8.1 mph SE13.0 kmh SE 8.2 mph13.2 kmh 30.07 in1018.3 mb 0.00 in0.0 mm 0.00 in0.0 mm 0.00 in0.0 mm
04:06 PM 57.7°F14.3°C 44.3°F6.8°C 50% 7.3 mph SE11.7 kmh SE 7.3 mph11.7 kmh 30.07 in1018.3 mb 0.00 in0.0 mm 0.00 in0.0 mm 0.00 in0.0 mm
04:09 PM 58.2°F14.6°C 45.1°F7.3°C 51% 4.4 mph E7.1 kmh E 4.4 mph7.1 kmh 30.07 in1018.3 mb 0.00 in0.0 mm 0.00 in0.0 mm 0.00 in0.0 mm
04:12 PM 59.0°F15.0°C 45.7°F7.6°C 53% 4.0 mph SE6.4 kmh SE 4.0 mph6.4 kmh 30.07 in1018.3 mb 0.00 in0.0 mm 0.00 in0.0 mm 0.00 in0.0 mm
04:15 PM 57.2°F14.0°C 45.4°F7.4°C 52% 11.9 mph ESE19.2 kmh ESE 12.0 mph19.3 kmh 30.07 in1018.3 mb 0.00 in0.0 mm 0.00 in0.0 mm 0.00 in0.0 mm
04:18 PM 56.8°F13.8°C 44.6°F7.0°C 51% 3.8 mph E6.1 kmh E 3.9 mph6.3 kmh 30.06 in1017.9 mb 0.00 in0.0 mm 0.00 in0.0 mm 0.00 in0.0 mm
04:21 PM 59.0°F15.0°C 46.6°F8.1°C 55% 1.2 mph NNW1.9 kmh NNW 1.2 mph1.9 kmh 30.06 in1017.9 mb 0.00 in0.0 mm 0.00 in0.0 mm 0.00 in0.0 mm
04:24 PM 58.9°F14.9°C 45.5°F7.5°C 52% 1.5 mph SSW2.4 kmh SSW 1.5 mph2.4 kmh 30.05 in1017.6 mb 0.00 in0.0 mm 0.00 in0.0 mm 0.00 in0.0 mm
04:27 PM 57.3°F14.1°C 44.8°F7.1°C 52% 13.8 mph SE22.2 kmh SE 13.9 mph22.4 kmh 30.07 in1018.3 mb 0.00 in0.0 mm 0.00 in0.0 mm 0.00 in0.0 mm
04:30 PM 57.4°F14.1°C 45.3°F7.4°C 54% 9.6 mph NNW15.4 kmh NNW 9.6 mph15.4 kmh 30.06 in1017.9 mb 0.00 in0.0 mm 0.00 in0.0 mm 0.00 in0.0 mm
04:33 PM 57.3°F14.1°C 45.4°F7.4°C 55% 9.2 mph NNW14.8 kmh NNW 9.2 mph14.8 kmh 30.06 in1017.9 mb 0.00 in0.0 mm 0.00 in0.0 mm 0.00 in0.0 mm
04:36 PM 56.8°F13.8°C 45.1°F7.3°C 54% 10.0 mph ESE16.1 kmh ESE 10.1 mph16.3 kmh 30.06 in1017.9 mb 0.00 in0.0 mm 0.00 in0.0 mm 0.00 in0.0 mm
04:39 PM 57.0°F13.9°C 44.4°F6.9°C 53% 6.8 mph SE10.9 kmh SE 6.8 mph10.9 kmh 30.05 in1017.6 mb 0.00 in0.0 mm 0.00 in0.0 mm 0.00 in0.0 mm
04:42 PM 58.1°F14.5°C 45.3°F7.4°C 54% 4.4 mph ESE7.1 kmh ESE 4.5 mph7.2 kmh 30.05 in1017.6 mb 0.00 in0.0 mm 0.00 in0.0 mm 0.00 in0.0 mm
04:45 PM 57.4°F14.1°C 45.6°F7.6°C 54% 7.3 mph ESE11.7 kmh ESE 7.4 mph11.9 kmh 30.05 in1017.6 mb 0.00 in0.0 mm 0.00 in0.0 mm 0.00 in0.0 mm
04:48 PM 58.0°F14.4°C 45.1°F7.3°C 53% 7.6 mph ESE12.2 kmh ESE 7.6 mph12.2 kmh 30.05 in1017.6 mb 0.00 in0.0 mm 0.00 in0.0 mm 0.00 in0.0 mm
04:51 PM 57.7°F14.3°C 44.8°F7.1°C 53% 8.1 mph ESE13.0 kmh ESE 8.1 mph13.0 kmh 30.05 in1017.6 mb 0.00 in0.0 mm 0.00 in0.0 mm 0.00 in0.0 mm
04:54 PM 58.0°F14.4°C 46.6°F8.1°C 56% 3.6 mph NE5.8 kmh NE 3.6 mph5.8 kmh 30.05 in1017.6 mb 0.00 in0.0 mm 0.00 in0.0 mm 0.00 in0.0 mm
04:57 PM 58.2°F14.6°C 45.9°F7.7°C 54% 6.0 mph SE9.7 kmh SE 6.1 mph9.8 kmh 30.05 in1017.6 mb 0.00 in0.0 mm 0.00 in0.0 mm 0.00 in0.0 mm
05:00 PM 56.5°F13.6°C 45.7°F7.6°C 56% 9.9 mph ESE15.9 kmh ESE 9.9 mph15.9 kmh 30.05 in1017.6 mb 0.00 in0.0 mm 0.00 in0.0 mm 0.00 in0.0 mm
05:03 PM 56.4°F13.6°C 45.1°F7.3°C 55% 11.3 mph ESE18.2 kmh ESE 11.4 mph18.3 kmh 30.05 in1017.6 mb 0.00 in0.0 mm 0.00 in0.0 mm 0.00 in0.0 mm
05:06 PM 56.5°F13.6°C 45.6°F7.6°C 56% 8.5 mph ESE13.7 kmh ESE 8.6 mph13.8 kmh 30.05 in1017.6 mb 0.00 in0.0 mm 0.00 in0.0 mm 0.00 in0.0 mm
05:09 PM 56.2°F13.4°C 45.6°F7.6°C 56% 7.7 mph ESE12.4 kmh ESE 7.7 mph12.4 kmh 30.05 in1017.6 mb 0.00 in0.0 mm 0.00 in0.0 mm 0.00 in0.0 mm
05:12 PM 56.6°F13.7°C 46.1°F7.8°C 58% 3.6 mph ESE5.8 kmh ESE 3.7 mph6.0 kmh 30.05 in1017.6 mb 0.00 in0.0 mm 0.00 in0.0 mm 0.00 in0.0 mm
05:15 PM 56.9°F13.8°C 45.6°F7.6°C 56% 5.2 mph SE8.4 kmh SE 5.3 mph8.5 kmh 30.05 in1017.6 mb 0.00 in0.0 mm 0.00 in0.0 mm 0.00 in0.0 mm
05:18 PM 56.5°F13.6°C 45.2°F7.3°C 55% 5.0 mph NNW8.0 kmh NNW 5.1 mph8.2 kmh 30.05 in1017.6 mb 0.00 in0.0 mm 0.00 in0.0 mm 0.00 in0.0 mm
05:21 PM 55.9°F13.3°C 44.7°F7.1°C 56% 10.5 mph ESE16.9 kmh ESE 10.6 mph17.1 kmh 30.05 in1017.6 mb 0.00 in0.0 mm 0.00 in0.0 mm 0.00 in0.0 mm
05:24 PM 55.4°F13.0°C 44.4°F6.9°C 56% 11.4 mph NNW18.3 kmh NNW 11.4 mph18.3 kmh 30.05 in1017.6 mb 0.00 in0.0 mm 0.00 in0.0 mm 0.00 in0.0 mm
05:27 PM 55.6°F13.1°C 44.3°F6.8°C 56% 6.8 mph ESE10.9 kmh ESE 6.9 mph11.1 kmh 30.05 in1017.6 mb 0.00 in0.0 mm 0.00 in0.0 mm 0.00 in0.0 mm
05:30 PM 55.3°F12.9°C 44.6°F7.0°C 57% 8.4 mph ESE13.5 kmh ESE 8.5 mph13.7 kmh 30.05 in1017.6 mb 0.00 in0.0 mm 0.00 in0.0 mm 0.00 in0.0 mm
05:33 PM 55.4°F13.0°C 44.8°F7.1°C 57% 4.0 mph ESE6.4 kmh ESE 4.1 mph6.6 kmh 30.05 in1017.6 mb 0.00 in0.0 mm 0.00 in0.0 mm 0.00 in0.0 mm
05:36 PM 54.8°F12.7°C 45.3°F7.4°C 59% 11.3 mph SE18.2 kmh SE 11.4 mph18.3 kmh 30.05 in1017.6 mb 0.00 in0.0 mm 0.00 in0.0 mm 0.00 in0.0 mm
05:39 PM 54.5°F12.5°C 44.4°F6.9°C 57% 6.9 mph ESE11.1 kmh ESE 6.9 mph11.1 kmh 30.05 in1017.6 mb 0.00 in0.0 mm 0.00 in0.0 mm 0.00 in0.0 mm
05:42 PM 54.5°F12.5°C 44.8°F7.1°C 57% 4.4 mph ESE7.1 kmh ESE 4.4 mph7.1 kmh 30.05 in1017.6 mb 0.00 in0.0 mm 0.00 in0.0 mm 0.00 in0.0 mm
05:45 PM 54.3°F12.4°C 44.9°F7.2°C 58% 5.8 mph ESE9.3 kmh ESE 5.8 mph9.3 kmh 30.05 in1017.6 mb 0.00 in0.0 mm 0.00 in0.0 mm 0.00 in0.0 mm
05:48 PM 54.1°F12.3°C 44.0°F6.7°C 56% 6.0 mph ESE9.7 kmh ESE 6.1 mph9.8 kmh 30.05 in1017.6 mb 0.00 in0.0 mm 0.00 in0.0 mm 0.00 in0.0 mm
05:51 PM 53.7°F12.1°C 44.5°F6.9°C 57% 5.7 mph ESE9.2 kmh ESE 5.7 mph9.2 kmh 30.05 in1017.6 mb 0.00 in0.0 mm 0.00 in0.0 mm 0.00 in0.0 mm
05:54 PM 53.8°F12.1°C 43.8°F6.6°C 56% 3.6 mph SE5.8 kmh SE 3.7 mph6.0 kmh 30.05 in1017.6 mb 0.00 in0.0 mm 0.00 in0.0 mm 0.00 in0.0 mm
05:57 PM 53.3°F11.8°C 44.3°F6.8°C 58% 7.3 mph ESE11.7 kmh ESE 7.3 mph11.7 kmh 30.05 in1017.6 mb 0.00 in0.0 mm 0.00 in0.0 mm 0.00 in0.0 mm
06:00 PM 53.0°F11.7°C 44.0°F6.7°C 58% 7.6 mph ESE12.2 kmh ESE 7.6 mph12.2 kmh 30.05 in1017.6 mb 0.00 in0.0 mm 0.00 in0.0 mm 0.00 in0.0 mm
06:03 PM 52.9°F11.6°C 43.5°F6.4°C 57% 9.3 mph ESE15.0 kmh ESE 9.3 mph15.0 kmh 30.05 in1017.6 mb 0.00 in0.0 mm 0.00 in0.0 mm 0.00 in0.0 mm
06:06 PM 52.3°F11.3°C 43.8°F6.6°C 58% 7.3 mph SE11.7 kmh SE 7.3 mph11.7 kmh 30.05 in1017.6 mb 0.00 in0.0 mm 0.00 in0.0 mm 0.00 in0.0 mm
06:09 PM 51.8°F11.0°C 43.7°F6.5°C 58% 9.2 mph E14.8 kmh E 9.4 mph15.1 kmh 30.05 in1017.6 mb 0.00 in0.0 mm 0.00 in0.0 mm 0.00 in0.0 mm
06:12 PM 51.7°F10.9°C 43.9°F6.6°C 58% 3.2 mph E5.1 kmh E 3.2 mph5.1 kmh 30.05 in1017.6 mb 0.00 in0.0 mm 0.00 in0.0 mm 0.00 in0.0 mm
06:15 PM 51.5°F10.8°C 43.8°F6.6°C 58% 4.6 mph E7.4 kmh E 4.6 mph7.4 kmh 30.05 in1017.6 mb 0.00 in0.0 mm 0.00 in0.0 mm 0.00 in0.0 mm
06:18 PM 51.1°F10.6°C 43.3°F6.3°C 58% 8.8 mph SE14.2 kmh SE 8.9 mph14.3 kmh 30.05 in1017.6 mb 0.00 in0.0 mm 0.00 in0.0 mm 0.00 in0.0 mm
06:21 PM 50.6°F10.3°C 44.0°F6.7°C 60% 5.7 mph ESE9.2 kmh ESE 5.8 mph9.3 kmh 30.05 in1017.6 mb 0.00 in0.0 mm 0.00 in0.0 mm 0.00 in0.0 mm
06:24 PM 50.5°F10.3°C 44.2°F6.8°C 60% 5.3 mph ESE8.5 kmh ESE 5.3 mph8.5 kmh 30.05 in1017.6 mb 0.00 in0.0 mm 0.00 in0.0 mm 0.00 in0.0 mm
06:27 PM 49.9°F9.9°C 43.8°F6.6°C 59% 1.2 mph ENE1.9 kmh ENE 1.2 mph1.9 kmh 30.05 in1017.6 mb 0.00 in0.0 mm 0.00 in0.0 mm 0.00 in0.0 mm
06:30 PM 49.8°F9.9°C 44.0°F6.7°C 59% 5.8 mph ESE9.3 kmh ESE 5.8 mph9.3 kmh 30.05 in1017.6 mb 0.00 in0.0 mm 0.00 in0.0 mm 0.00 in0.0 mm
06:33 PM 49.3°F9.6°C 43.8°F6.6°C 59% 7.1 mph ESE11.4 kmh ESE 7.2 mph11.6 kmh 30.05 in1017.6 mb 0.00 in0.0 mm 0.00 in0.0 mm 0.00 in0.0 mm
06:36 PM 49.0°F9.4°C 43.8°F6.6°C 60% 1.6 mph SE2.6 kmh SE 1.6 mph2.6 kmh 30.05 in1017.6 mb 0.00 in0.0 mm 0.00 in0.0 mm 0.00 in0.0 mm
06:39 PM 48.8°F9.3°C 43.5°F6.4°C 59% 4.9 mph E7.9 kmh E 4.9 mph7.9 kmh 30.05 in1017.6 mb 0.00 in0.0 mm 0.00 in0.0 mm 0.00 in0.0 mm
06:42 PM 48.7°F9.3°C 43.3°F6.3°C 59% 5.7 mph NNW9.2 kmh NNW 5.7 mph9.2 kmh 30.05 in1017.6 mb 0.00 in0.0 mm 0.00 in0.0 mm 0.00 in0.0 mm
06:45 PM 48.4°F9.1°C 43.4°F6.3°C 60% 1.6 mph E2.6 kmh E 1.6 mph2.6 kmh 30.05 in1017.6 mb 0.00 in0.0 mm 0.00 in0.0 mm 0.00 in0.0 mm
06:48 PM 48.4°F9.1°C 42.9°F6.1°C 59% 6.0 mph E9.7 kmh E 6.1 mph9.8 kmh 30.05 in1017.6 mb 0.00 in0.0 mm 0.00 in0.0 mm 0.00 in0.0 mm
06:51 PM 48.5°F9.2°C 42.7°F5.9°C 58% 2.4 mph E3.9 kmh E 2.4 mph3.9 kmh 30.05 in1017.6 mb 0.00 in0.0 mm 0.00 in0.0 mm 0.00 in0.0 mm
06:54 PM 48.1°F8.9°C 42.7°F5.9°C 59% 3.6 mph ESE5.8 kmh ESE 3.6 mph5.8 kmh 30.05 in1017.6 mb 0.00 in0.0 mm 0.00 in0.0 mm 0.00 in0.0 mm
06:57 PM 48.0°F8.9°C 42.3°F5.7°C 58% 1.9 mph NE3.1 kmh NE 2.0 mph3.2 kmh 30.05 in1017.6 mb 0.00 in0.0 mm 0.00 in0.0 mm 0.00 in0.0 mm
07:00 PM 47.9°F8.8°C 42.3°F5.7°C 58% 8.9 mph ESE14.3 kmh ESE 9.0 mph14.5 kmh 30.05 in1017.6 mb 0.00 in0.0 mm 0.00 in0.0 mm 0.00 in0.0 mm
07:03 PM 47.5°F8.6°C 42.2°F5.7°C 58% 2.4 mph ENE3.9 kmh ENE 2.5 mph4.0 kmh 30.05 in1017.6 mb 0.00 in0.0 mm 0.00 in0.0 mm 0.00 in0.0 mm
07:06 PM 47.6°F8.7°C 41.6°F5.3°C 57% 3.2 mph NNW5.1 kmh NNW 3.2 mph5.1 kmh 30.05 in1017.6 mb 0.00 in0.0 mm 0.00 in0.0 mm 0.00 in0.0 mm
07:09 PM 47.6°F8.7°C 41.8°F5.4°C 58% 6.2 mph NE10.0 kmh NE 6.3 mph10.1 kmh 30.05 in1017.6 mb 0.00 in0.0 mm 0.00 in0.0 mm 0.00 in0.0 mm
07:12 PM 47.3°F8.5°C 42.1°F5.6°C 59% 5.2 mph SE8.4 kmh SE 5.3 mph8.5 kmh 30.05 in1017.6 mb 0.00 in0.0 mm 0.00 in0.0 mm 0.00 in0.0 mm
07:15 PM 47.4°F8.6°C 41.0°F5.0°C 57% 2.0 mph NE3.2 kmh NE 2.0 mph3.2 kmh 30.05 in1017.6 mb 0.00 in0.0 mm 0.00 in0.0 mm 0.00 in0.0 mm
07:18 PM 47.0°F8.3°C 41.5°F5.3°C 58% 1.2 mph NE1.9 kmh NE 1.2 mph1.9 kmh 30.05 in1017.6 mb 0.00 in0.0 mm 0.00 in0.0 mm 0.00 in0.0 mm
07:21 PM 46.7°F8.2°C 41.7°F5.4°C 58% 3.1 mph NNW5.0 kmh NNW 3.1 mph5.0 kmh 30.05 in1017.6 mb 0.00 in0.0 mm 0.00 in0.0 mm 0.00 in0.0 mm
07:24 PM 46.6°F8.1°C 41.2°F5.1°C 58% 1.5 mph ENE2.4 kmh ENE 1.5 mph2.4 kmh 30.05 in1017.6 mb 0.00 in0.0 mm 0.00 in0.0 mm 0.00 in0.0 mm
07:27 PM 46.4°F8.0°C 41.2°F5.1°C 58% 2.4 mph ESE3.9 kmh ESE 2.4 mph3.9 kmh 30.05 in1017.6 mb 0.00 in0.0 mm 0.00 in0.0 mm 0.00 in0.0 mm
07:30 PM 46.0°F7.8°C 41.3°F5.2°C 58% Calm Calm -- 30.05 in1017.6 mb 0.00 in0.0 mm 0.00 in0.0 mm 0.00 in0.0 mm
07:33 PM 46.1°F7.8°C 41.0°F5.0°C 58% 1.6 mph E2.6 kmh E 1.6 mph2.6 kmh 30.05 in1017.6 mb 0.00 in0.0 mm 0.00 in0.0 mm 0.00 in0.0 mm
07:36 PM 46.0°F7.8°C 41.3°F5.2°C 58% 4.6 mph NE7.4 kmh NE 4.9 mph7.9 kmh 30.05 in1017.6 mb 0.00 in0.0 mm 0.00 in0.0 mm 0.00 in0.0 mm
07:39 PM 46.0°F7.8°C 40.7°F4.8°C 58% 5.0 mph NNW8.0 kmh NNW 5.0 mph8.0 kmh 30.05 in1017.6 mb 0.00 in0.0 mm 0.00 in0.0 mm 0.00 in0.0 mm
07:42 PM 46.0°F7.8°C 40.7°F4.8°C 58% 5.9 mph SE9.5 kmh SE 6.0 mph9.7 kmh 30.05 in1017.6 mb 0.00 in0.0 mm 0.00 in0.0 mm 0.00 in0.0 mm
07:45 PM 45.6°F7.6°C 40.6°F4.8°C 58% 1.6 mph ESE2.6 kmh ESE 1.6 mph2.6 kmh 30.05 in1017.6 mb 0.00 in0.0 mm 0.00 in0.0 mm 0.00 in0.0 mm
07:48 PM 45.6°F7.6°C 40.8°F4.9°C 58% 4.0 mph ESE6.4 kmh ESE 4.0 mph6.4 kmh 30.05 in1017.6 mb 0.00 in0.0 mm 0.00 in0.0 mm 0.00 in0.0 mm
07:51 PM 45.8°F7.7°C 40.9°F4.9°C 59% 2.4 mph E3.9 kmh E 2.4 mph3.9 kmh 30.05 in1017.6 mb 0.00 in0.0 mm 0.00 in0.0 mm 0.00 in0.0 mm
07:54 PM 45.6°F7.6°C 40.2°F4.6°C 57% 4.0 mph NE6.4 kmh NE 4.0 mph6.4 kmh 30.05 in1017.6 mb 0.00 in0.0 mm 0.00 in0.0 mm 0.00 in0.0 mm
07:57 PM 45.2°F7.3°C 40.5°F4.7°C 58% 2.0 mph ENE3.2 kmh ENE 2.0 mph3.2 kmh 30.05 in1017.6 mb 0.00 in0.0 mm 0.00 in0.0 mm 0.00 in0.0 mm
08:00 PM 45.3°F7.4°C 39.9°F4.4°C 58% 2.0 mph NNW3.2 kmh NNW 2.0 mph3.2 kmh 30.05 in1017.6 mb 0.00 in0.0 mm 0.00 in0.0 mm 0.00 in0.0 mm
08:03 PM 45.1°F7.3°C 40.3°F4.6°C 58% 4.6 mph ESE7.4 kmh ESE 4.6 mph7.4 kmh 30.05 in1017.6 mb 0.00 in0.0 mm 0.00 in0.0 mm 0.00 in0.0 mm
08:06 PM 45.4°F7.4°C 40.5°F4.7°C 59% 3.2 mph E5.1 kmh E 3.2 mph5.1 kmh 30.05 in1017.6 mb 0.00 in0.0 mm 0.00 in0.0 mm 0.00 in0.0 mm
08:09 PM 45.3°F7.4°C 40.4°F4.7°C 59% 6.0 mph ESE9.7 kmh ESE 6.0 mph9.7 kmh 30.05 in1017.6 mb 0.00 in0.0 mm 0.00 in0.0 mm 0.00 in0.0 mm
08:12 PM 44.9°F7.2°C 40.6°F4.8°C 59% 0.4 mph NE0.6 kmh NE 0.4 mph0.6 kmh 30.06 in1017.9 mb 0.00 in0.0 mm 0.00 in0.0 mm 0.00 in0.0 mm
08:15 PM 44.6°F7.0°C 40.6°F4.8°C 60% 2.8 mph ENE4.5 kmh ENE 2.8 mph4.5 kmh 30.05 in1017.6 mb 0.00 in0.0 mm 0.00 in0.0 mm 0.00 in0.0 mm
08:18 PM 44.3°F6.8°C 40.5°F4.7°C 60% 4.6 mph E7.4 kmh E 4.6 mph7.4 kmh 30.06 in1017.9 mb 0.00 in0.0 mm 0.00 in0.0 mm 0.00 in0.0 mm
08:21 PM 44.4°F6.9°C 40.4°F4.7°C 59% 2.7 mph ENE4.3 kmh ENE 2.9 mph4.7 kmh 30.05 in1017.6 mb 0.00 in0.0 mm 0.00 in0.0 mm 0.00 in0.0 mm
08:24 PM 44.2°F6.8°C 40.5°F4.7°C 60% 3.4 mph SE5.5 kmh SE 3.4 mph5.5 kmh 30.05 in1017.6 mb 0.00 in0.0 mm 0.00 in0.0 mm 0.00 in0.0 mm
08:27 PM 45.1°F7.3°C 39.8°F4.3°C 59% 7.6 mph ESE12.2 kmh ESE 7.6 mph12.2 kmh 30.05 in1017.6 mb 0.00 in0.0 mm 0.00 in0.0 mm 0.00 in0.0 mm
08:30 PM 45.1°F7.3°C 40.2°F4.6°C 60% 8.1 mph SE13.0 kmh SE 8.2 mph13.2 kmh 30.06 in1017.9 mb 0.00 in0.0 mm 0.00 in0.0 mm 0.00 in0.0 mm
08:33 PM 44.7°F7.1°C 40.3°F4.6°C 60% 2.0 mph SE3.2 kmh SE 2.0 mph3.2 kmh 30.05 in1017.6 mb 0.00 in0.0 mm 0.00 in0.0 mm 0.00 in0.0 mm
08:36 PM 45.2°F7.3°C 40.1°F4.5°C 60% 6.5 mph ESE10.5 kmh ESE 6.5 mph10.5 kmh 30.05 in1017.6 mb 0.00 in0.0 mm 0.00 in0.0 mm 0.00 in0.0 mm
08:39 PM 45.8°F7.7°C 39.7°F4.3°C 60% 9.7 mph SE15.6 kmh SE 9.8 mph15.8 kmh 30.05 in1017.6 mb 0.00 in0.0 mm 0.00 in0.0 mm 0.00 in0.0 mm
08:42 PM 45.7°F7.6°C 39.7°F4.3°C 60% 2.8 mph E4.5 kmh E 2.8 mph4.5 kmh 30.05 in1017.6 mb 0.00 in0.0 mm 0.00 in0.0 mm 0.00 in0.0 mm
08:45 PM 46.0°F7.8°C 39.3°F4.1°C 59% 10.4 mph ESE16.7 kmh ESE 10.4 mph16.7 kmh 30.05 in1017.6 mb 0.00 in0.0 mm 0.00 in0.0 mm 0.00 in0.0 mm
08:48 PM 45.6°F7.6°C 39.8°F4.3°C 60% 5.3 mph SE8.5 kmh SE 5.3 mph8.5 kmh 30.05 in1017.6 mb 0.00 in0.0 mm 0.00 in0.0 mm 0.00 in0.0 mm
08:51 PM 45.3°F7.4°C 39.9°F4.4°C 60% 8.3 mph SE13.4 kmh SE 8.4 mph13.5 kmh 30.05 in1017.6 mb 0.00 in0.0 mm 0.00 in0.0 mm 0.00 in0.0 mm
08:54 PM 45.3°F7.4°C 39.8°F4.3°C 60% 8.0 mph SE12.9 kmh SE 8.1 mph13.0 kmh 30.05 in1017.6 mb 0.00 in0.0 mm 0.00 in0.0 mm 0.00 in0.0 mm
08:57 PM 45.2°F7.3°C 39.7°F4.3°C 61% 7.2 mph SE11.6 kmh SE 7.2 mph11.6 kmh 30.05 in1017.6 mb 0.00 in0.0 mm 0.00 in0.0 mm 0.00 in0.0 mm
09:00 PM 44.7°F7.1°C 39.9°F4.4°C 61% 3.4 mph SE5.5 kmh SE 3.4 mph5.5 kmh 30.05 in1017.6 mb 0.00 in0.0 mm 0.00 in0.0 mm 0.00 in0.0 mm
09:03 PM 44.9°F7.2°C 39.3°F4.1°C 60% 10.2 mph ESE16.4 kmh ESE 10.2 mph16.4 kmh 30.05 in1017.6 mb 0.00 in0.0 mm 0.00 in0.0 mm 0.00 in0.0 mm
09:06 PM 44.8°F7.1°C 39.4°F4.1°C 60% 7.4 mph ESE11.9 kmh ESE 7.4 mph11.9 kmh 30.05 in1017.6 mb 0.00 in0.0 mm 0.00 in0.0 mm 0.00 in0.0 mm
09:09 PM 44.7°F7.1°C 39.2°F4.0°C 60% 7.6 mph SE12.2 kmh SE 7.6 mph12.2 kmh 30.05 in1017.6 mb 0.00 in0.0 mm 0.00 in0.0 mm 0.00 in0.0 mm
09:12 PM 44.7°F7.1°C 38.7°F3.7°C 59% 6.0 mph ESE9.7 kmh ESE 6.0 mph9.7 kmh 30.05 in1017.6 mb 0.00 in0.0 mm 0.00 in0.0 mm 0.00 in0.0 mm
09:15 PM 44.6°F7.0°C 38.5°F3.6°C 59% 6.4 mph ESE10.3 kmh ESE 6.4 mph10.3 kmh 30.05 in1017.6 mb 0.00 in0.0 mm 0.00 in0.0 mm 0.00 in0.0 mm
09:18 PM 44.6°F7.0°C 38.1°F3.4°C 59% 8.9 mph SE14.3 kmh SE 9.0 mph14.5 kmh 30.05 in1017.6 mb 0.00 in0.0 mm 0.00 in0.0 mm 0.00 in0.0 mm
09:21 PM 44.7°F7.1°C 38.2°F3.4°C 59% 6.8 mph NNW10.9 kmh NNW 6.8 mph10.9 kmh 30.05 in1017.6 mb 0.00 in0.0 mm 0.00 in0.0 mm 0.00 in0.0 mm
09:24 PM 44.7°F7.1°C 37.7°F3.2°C 58% 9.3 mph ESE15.0 kmh ESE 9.4 mph15.1 kmh 30.05 in1017.6 mb 0.00 in0.0 mm 0.00 in0.0 mm 0.00 in0.0 mm
09:27 PM 44.7°F7.1°C 37.8°F3.2°C 58% 7.2 mph SE11.6 kmh SE 7.2 mph11.6 kmh 30.05 in1017.6 mb 0.00 in0.0 mm 0.00 in0.0 mm 0.00 in0.0 mm
09:30 PM 44.8°F7.1°C 37.5°F3.1°C 58% 8.6 mph SE13.8 kmh SE 8.7 mph14.0 kmh 30.05 in1017.6 mb 0.00 in0.0 mm 0.00 in0.0 mm 0.00 in0.0 mm
09:33 PM 44.4°F6.9°C 37.9°F3.3°C 59% 5.3 mph NNW8.5 kmh NNW 5.7 mph9.2 kmh 30.05 in1017.6 mb 0.00 in0.0 mm 0.00 in0.0 mm 0.00 in0.0 mm
09:36 PM 44.2°F6.8°C 37.6°F3.1°C 58% 6.7 mph ESE10.8 kmh ESE 6.8 mph10.9 kmh 30.05 in1017.6 mb 0.00 in0.0 mm 0.00 in0.0 mm 0.00 in0.0 mm
09:39 PM 43.9°F6.6°C 38.1°F3.4°C 60% 4.9 mph SE7.9 kmh SE 4.9 mph7.9 kmh 30.05 in1017.6 mb 0.00 in0.0 mm 0.00 in0.0 mm 0.00 in0.0 mm
09:42 PM 43.9°F6.6°C 37.4°F3.0°C 58% 8.9 mph SE14.3 kmh SE 9.0 mph14.5 kmh 30.05 in1017.6 mb 0.00 in0.0 mm 0.00 in0.0 mm 0.00 in0.0 mm
09:45 PM 44.0°F6.7°C 37.8°F3.2°C 59% 6.1 mph SE9.8 kmh SE 6.1 mph9.8 kmh 30.05 in1017.6 mb 0.00 in0.0 mm 0.00 in0.0 mm 0.00 in0.0 mm
09:48 PM 43.6°F6.4°C 38.3°F3.5°C 60% 5.2 mph SE8.4 kmh SE 5.2 mph8.4 kmh 30.05 in1017.6 mb 0.00 in0.0 mm 0.00 in0.0 mm 0.00 in0.0 mm
09:51 PM 43.5°F6.4°C 37.9°F3.3°C 59% 5.5 mph SE8.9 kmh SE 5.5 mph8.9 kmh 30.05 in1017.6 mb 0.00 in0.0 mm 0.00 in0.0 mm 0.00 in0.0 mm
09:54 PM 43.1°F6.2°C 38.0°F3.3°C 60% 4.6 mph SE7.4 kmh SE 4.7 mph7.6 kmh 30.05 in1017.6 mb 0.00 in0.0 mm 0.00 in0.0 mm 0.00 in0.0 mm
09:57 PM 43.1°F6.2°C 38.2°F3.4°C 60% 3.4 mph SSE5.5 kmh SSE 3.4 mph5.5 kmh 30.05 in1017.6 mb 0.00 in0.0 mm 0.00 in0.0 mm 0.00 in0.0 mm
10:00 PM 43.0°F6.1°C 37.9°F3.3°C 60% 4.8 mph SE7.7 kmh SE 4.9 mph7.9 kmh 30.05 in1017.6 mb 0.00 in0.0 mm 0.00 in0.0 mm 0.00 in0.0 mm
10:03 PM 43.0°F6.1°C 37.8°F3.2°C 60% 3.6 mph SSE5.8 kmh SSE 3.6 mph5.8 kmh 30.05 in1017.6 mb 0.00 in0.0 mm 0.00 in0.0 mm 0.00 in0.0 mm
10:06 PM 42.5°F5.8°C 38.4°F3.6°C 61% 3.6 mph SSE5.8 kmh SSE 3.7 mph6.0 kmh 30.04 in1017.3 mb 0.00 in0.0 mm 0.00 in0.0 mm 0.00 in0.0 mm
10:09 PM 42.4°F5.8°C 38.1°F3.4°C 60% 4.1 mph SE6.6 kmh SE 4.1 mph6.6 kmh 30.04 in1017.3 mb 0.00 in0.0 mm 0.00 in0.0 mm 0.00 in0.0 mm
10:12 PM 42.9°F6.1°C 37.3°F2.9°C 59% 4.7 mph SSE7.6 kmh SSE 4.7 mph7.6 kmh 30.04 in1017.3 mb 0.00 in0.0 mm 0.00 in0.0 mm 0.00 in0.0 mm
10:15 PM 43.7°F6.5°C 37.1°F2.8°C 59% 5.3 mph NNW8.5 kmh NNW 5.3 mph8.5 kmh 30.04 in1017.3 mb 0.00 in0.0 mm 0.00 in0.0 mm 0.00 in0.0 mm
10:18 PM 42.7°F5.9°C 37.8°F3.2°C 60% 4.0 mph NNW6.4 kmh NNW 4.1 mph6.6 kmh 30.04 in1017.3 mb 0.00 in0.0 mm 0.00 in0.0 mm 0.00 in0.0 mm
10:21 PM 42.2°F5.7°C 38.0°F3.3°C 61% 4.0 mph SSE6.4 kmh SSE 4.1 mph6.6 kmh 30.04 in1017.3 mb 0.00 in0.0 mm 0.00 in0.0 mm 0.00 in0.0 mm
10:24 PM 41.8°F5.4°C 38.1°F3.4°C 61% 4.6 mph SE7.4 kmh SE 4.6 mph7.4 kmh 30.04 in1017.3 mb 0.00 in0.0 mm 0.00 in0.0 mm 0.00 in0.0 mm
10:27 PM 41.5°F5.3°C 38.0°F3.3°C 61% 3.6 mph SE5.8 kmh SE 3.6 mph5.8 kmh 30.04 in1017.3 mb 0.00 in0.0 mm 0.00 in0.0 mm 0.00 in0.0 mm
10:30 PM 41.6°F5.3°C 37.4°F3.0°C 61% 4.4 mph SE7.1 kmh SE 4.5 mph7.2 kmh 30.04 in1017.3 mb 0.00 in0.0 mm 0.00 in0.0 mm 0.00 in0.0 mm
10:33 PM 41.7°F5.4°C 37.6°F3.1°C 61% 4.0 mph SE6.4 kmh SE 4.1 mph6.6 kmh 30.04 in1017.3 mb 0.00 in0.0 mm 0.00 in0.0 mm 0.00 in0.0 mm
10:36 PM 41.0°F5.0°C 38.1°F3.4°C 62% 3.8 mph SE6.1 kmh SE 4.0 mph6.4 kmh 30.04 in1017.3 mb 0.00 in0.0 mm 0.00 in0.0 mm 0.00 in0.0 mm
10:39 PM 41.0°F5.0°C 37.8°F3.2°C 62% 1.6 mph S2.6 kmh S 1.6 mph2.6 kmh 30.04 in1017.3 mb 0.00 in0.0 mm 0.00 in0.0 mm 0.00 in0.0 mm
10:42 PM 41.1°F5.1°C 37.4°F3.0°C 62% 1.6 mph SE2.6 kmh SE 1.6 mph2.6 kmh 30.03 in1016.9 mb 0.00 in0.0 mm 0.00 in0.0 mm 0.00 in0.0 mm
10:45 PM 41.8°F5.4°C 37.0°F2.8°C 61% 3.6 mph NNW5.8 kmh NNW 3.6 mph5.8 kmh 30.03 in1016.9 mb 0.00 in0.0 mm 0.00 in0.0 mm 0.00 in0.0 mm
10:48 PM 41.3°F5.2°C 37.6°F3.1°C 62% 3.6 mph SSE5.8 kmh SSE 3.6 mph5.8 kmh 30.04 in1017.3 mb 0.00 in0.0 mm 0.00 in0.0 mm 0.00 in0.0 mm
10:51 PM 41.6°F5.3°C 37.2°F2.9°C 61% 2.7 mph SSE4.3 kmh SSE 2.8 mph4.5 kmh 30.04 in1017.3 mb 0.00 in0.0 mm 0.00 in0.0 mm 0.00 in0.0 mm
10:54 PM 41.3°F5.2°C 37.1°F2.8°C 61% 5.2 mph SE8.4 kmh SE 5.3 mph8.5 kmh 30.03 in1016.9 mb 0.00 in0.0 mm 0.00 in0.0 mm 0.00 in0.0 mm
10:57 PM 40.8°F4.9°C 37.4°F3.0°C 63% 4.4 mph ESE7.1 kmh ESE 4.4 mph7.1 kmh 30.03 in1016.9 mb 0.00 in0.0 mm 0.00 in0.0 mm 0.00 in0.0 mm
11:00 PM 41.6°F5.3°C 36.4°F2.4°C 61% 4.8 mph SE7.7 kmh SE 4.9 mph7.9 kmh 30.03 in1016.9 mb 0.00 in0.0 mm 0.00 in0.0 mm 0.00 in0.0 mm
11:03 PM 41.7°F5.4°C 36.8°F2.7°C 61% 6.0 mph NNW9.7 kmh NNW 6.0 mph9.7 kmh 30.03 in1016.9 mb 0.00 in0.0 mm 0.00 in0.0 mm 0.00 in0.0 mm
11:06 PM 41.9°F5.5°C 36.8°F2.7°C 61% 4.5 mph SE7.2 kmh SE 4.5 mph7.2 kmh 30.03 in1016.9 mb 0.00 in0.0 mm 0.00 in0.0 mm 0.00 in0.0 mm
11:09 PM 41.5°F5.3°C 36.6°F2.6°C 60% 3.1 mph SE5.0 kmh SE 3.1 mph5.0 kmh 30.03 in1016.9 mb 0.00 in0.0 mm 0.00 in0.0 mm 0.00 in0.0 mm
11:12 PM 41.5°F5.3°C 36.6°F2.6°C 61% 4.0 mph SE6.4 kmh SE 4.0 mph6.4 kmh 30.03 in1016.9 mb 0.00 in0.0 mm 0.00 in0.0 mm 0.00 in0.0 mm
11:15 PM 41.6°F5.3°C 36.1°F2.3°C 60% 8.3 mph NNW13.4 kmh NNW 8.3 mph13.4 kmh 30.03 in1016.9 mb 0.00 in0.0 mm 0.00 in0.0 mm 0.00 in0.0 mm
11:18 PM 42.1°F5.6°C 36.4°F2.4°C 60% 5.3 mph ESE8.5 kmh ESE 5.3 mph8.5 kmh 30.03 in1016.9 mb 0.00 in0.0 mm 0.00 in0.0 mm 0.00 in0.0 mm
11:21 PM 41.8°F5.4°C 36.4°F2.4°C 60% 2.8 mph SE4.5 kmh SE 2.8 mph4.5 kmh 30.03 in1016.9 mb 0.00 in0.0 mm 0.00 in0.0 mm 0.00 in0.0 mm
11:24 PM 41.8°F5.4°C 36.7°F2.6°C 61% 4.0 mph SE6.4 kmh SE 4.1 mph6.6 kmh 30.03 in1016.9 mb 0.00 in0.0 mm 0.00 in0.0 mm 0.00 in0.0 mm
11:27 PM 41.6°F5.3°C 36.2°F2.3°C 60% 6.7 mph ESE10.8 kmh ESE 6.8 mph10.9 kmh 30.03 in1016.9 mb 0.00 in0.0 mm 0.00 in0.0 mm 0.00 in0.0 mm
11:30 PM 42.4°F5.8°C 36.2°F2.3°C 60% 4.9 mph SSE7.9 kmh SSE 4.9 mph7.9 kmh 30.03 in1016.9 mb 0.00 in0.0 mm 0.00 in0.0 mm 0.00 in0.0 mm
11:33 PM 41.2°F5.1°C 36.7°F2.6°C 61% 4.0 mph SE6.4 kmh SE 4.1 mph6.6 kmh 30.02 in1016.6 mb 0.00 in0.0 mm 0.00 in0.0 mm 0.00 in0.0 mm
11:36 PM 42.7°F5.9°C 35.5°F1.9°C 59% 7.5 mph NNW12.1 kmh NNW 7.6 mph12.2 kmh 30.02 in1016.6 mb 0.00 in0.0 mm 0.00 in0.0 mm 0.00 in0.0 mm
11:39 PM 42.1°F5.6°C 35.9°F2.2°C 60% 6.9 mph SE11.1 kmh SE 7.0 mph11.3 kmh 30.02 in1016.6 mb 0.00 in0.0 mm 0.00 in0.0 mm 0.00 in0.0 mm
11:42 PM 41.5°F5.3°C 36.3°F2.4°C 60% 6.0 mph NNW9.7 kmh NNW 6.0 mph9.7 kmh 30.02 in1016.6 mb 0.00 in0.0 mm 0.00 in0.0 mm 0.00 in0.0 mm
11:45 PM 41.6°F5.3°C 36.3°F2.4°C 60% 5.2 mph SE8.4 kmh SE 5.2 mph8.4 kmh 30.02 in1016.6 mb 0.00 in0.0 mm 0.00 in0.0 mm 0.00 in0.0 mm
11:48 PM 41.7°F5.4°C 36.4°F2.4°C 60% 3.6 mph SE5.8 kmh SE 3.6 mph5.8 kmh 30.01 in1016.3 mb 0.00 in0.0 mm 0.00 in0.0 mm 0.00 in0.0 mm
11:51 PM 40.8°F4.9°C 36.7°F2.6°C 61% 5.7 mph ESE9.2 kmh ESE 5.7 mph9.2 kmh 30.02 in1016.6 mb 0.00 in0.0 mm 0.00 in0.0 mm 0.00 in0.0 mm
11:54 PM 41.3°F5.2°C 36.1°F2.3°C 60% 3.5 mph NNW5.6 kmh NNW 3.6 mph5.8 kmh 30.02 in1016.6 mb 0.00 in0.0 mm 0.00 in0.0 mm 0.00 in0.0 mm
11:57 PM 41.6°F5.3°C 36.3°F2.4°C 61% 2.3 mph SSE3.7 kmh SSE 2.4 mph3.9 kmh 30.01 in1016.3 mb 0.00 in0.0 mm 0.00 in0.0 mm 0.00 in0.0 mm